<?xml version="1.0" encoding="UTF-8" standalone="no" ?>
<gpx xmlns="http://www.topografix.com/GPX/1/1" xmlns:xsi="http://www.w3.org/2001/XMLSchema-instance" xsi:schemaLocation="http://www.topografix.com/GPX/1/1 http://www.topografix.com/GPX/1/1/gpx.xsd" version="1.1" creator="VisuGPX - https://www.visugpx.com">
  <metadata>
    <name>Marsal 2016-04-20</name>
    <desc><![CDATA[
]]></desc>
  </metadata>
  <trk>
    <name><![CDATA[Marsal 2016-04-20]]></name>
    <trkseg>
      <trkpt lat="43.93077" lon="2.28991">
        <ele>191.1</ele>
        <time>2016-04-20T08:06:21.000Z</time>
      </trkpt>
      <trkpt lat="43.93077" lon="2.28991">
        <ele>190.5</ele>
        <time>2016-04-20T08:06:22.000Z</time>
      </trkpt>
      <trkpt lat="43.93089" lon="2.28979">
        <ele>183</ele>
        <time>2016-04-20T08:07:0.000Z</time>
      </trkpt>
      <trkpt lat="43.93095" lon="2.28988">
        <ele>181.6</ele>
        <time>2016-04-20T08:20:36.000Z</time>
      </trkpt>
      <trkpt lat="43.93102" lon="2.28979">
        <ele>181.5</ele>
        <time>2016-04-20T08:20:47.000Z</time>
      </trkpt>
      <trkpt lat="43.93108" lon="2.28969">
        <ele>180.9</ele>
        <time>2016-04-20T08:20:57.000Z</time>
      </trkpt>
      <trkpt lat="43.93116" lon="2.28962">
        <ele>180.1</ele>
        <time>2016-04-20T08:21:4.000Z</time>
      </trkpt>
      <trkpt lat="43.93125" lon="2.28955">
        <ele>179.5</ele>
        <time>2016-04-20T08:21:10.000Z</time>
      </trkpt>
      <trkpt lat="43.9313" lon="2.28944">
        <ele>178.3</ele>
        <time>2016-04-20T08:21:19.000Z</time>
      </trkpt>
      <trkpt lat="43.93135" lon="2.28934">
        <ele>177.8</ele>
        <time>2016-04-20T08:21:26.000Z</time>
      </trkpt>
      <trkpt lat="43.93142" lon="2.28924">
        <ele>177.1</ele>
        <time>2016-04-20T08:21:35.000Z</time>
      </trkpt>
      <trkpt lat="43.9315" lon="2.28916">
        <ele>176.4</ele>
        <time>2016-04-20T08:21:42.000Z</time>
      </trkpt>
      <trkpt lat="43.93159" lon="2.28919">
        <ele>175.4</ele>
        <time>2016-04-20T08:21:52.000Z</time>
      </trkpt>
      <trkpt lat="43.93168" lon="2.28927">
        <ele>174.9</ele>
        <time>2016-04-20T08:22:1.000Z</time>
      </trkpt>
      <trkpt lat="43.93177" lon="2.28935">
        <ele>174.3</ele>
        <time>2016-04-20T08:22:10.000Z</time>
      </trkpt>
      <trkpt lat="43.93185" lon="2.28942">
        <ele>174.2</ele>
        <time>2016-04-20T08:22:17.000Z</time>
      </trkpt>
      <trkpt lat="43.93194" lon="2.28949">
        <ele>174.1</ele>
        <time>2016-04-20T08:22:25.000Z</time>
      </trkpt>
      <trkpt lat="43.93203" lon="2.28957">
        <ele>174</ele>
        <time>2016-04-20T08:22:33.000Z</time>
      </trkpt>
      <trkpt lat="43.9321" lon="2.28964">
        <ele>174</ele>
        <time>2016-04-20T08:22:40.000Z</time>
      </trkpt>
      <trkpt lat="43.93219" lon="2.2897">
        <ele>174</ele>
        <time>2016-04-20T08:22:48.000Z</time>
      </trkpt>
      <trkpt lat="43.93228" lon="2.28977">
        <ele>174.1</ele>
        <time>2016-04-20T08:22:55.000Z</time>
      </trkpt>
      <trkpt lat="43.93236" lon="2.28982">
        <ele>174.2</ele>
        <time>2016-04-20T08:23:2.000Z</time>
      </trkpt>
      <trkpt lat="43.93244" lon="2.2899">
        <ele>174.2</ele>
        <time>2016-04-20T08:23:9.000Z</time>
      </trkpt>
      <trkpt lat="43.93251" lon="2.28997">
        <ele>174.2</ele>
        <time>2016-04-20T08:23:17.000Z</time>
      </trkpt>
      <trkpt lat="43.9326" lon="2.29003">
        <ele>174.2</ele>
        <time>2016-04-20T08:23:26.000Z</time>
      </trkpt>
      <trkpt lat="43.93268" lon="2.2901">
        <ele>174.2</ele>
        <time>2016-04-20T08:23:33.000Z</time>
      </trkpt>
      <trkpt lat="43.93278" lon="2.29015">
        <ele>174.2</ele>
        <time>2016-04-20T08:23:40.000Z</time>
      </trkpt>
      <trkpt lat="43.93286" lon="2.29022">
        <ele>174.2</ele>
        <time>2016-04-20T08:23:48.000Z</time>
      </trkpt>
      <trkpt lat="43.93295" lon="2.29029">
        <ele>174.1</ele>
        <time>2016-04-20T08:23:54.000Z</time>
      </trkpt>
      <trkpt lat="43.93304" lon="2.29036">
        <ele>174.2</ele>
        <time>2016-04-20T08:24:1.000Z</time>
      </trkpt>
      <trkpt lat="43.93312" lon="2.29044">
        <ele>174.3</ele>
        <time>2016-04-20T08:24:9.000Z</time>
      </trkpt>
      <trkpt lat="43.93321" lon="2.29051">
        <ele>174.6</ele>
        <time>2016-04-20T08:24:18.000Z</time>
      </trkpt>
      <trkpt lat="43.93329" lon="2.29056">
        <ele>174.9</ele>
        <time>2016-04-20T08:24:25.000Z</time>
      </trkpt>
      <trkpt lat="43.93338" lon="2.29064">
        <ele>175.2</ele>
        <time>2016-04-20T08:24:32.000Z</time>
      </trkpt>
      <trkpt lat="43.93346" lon="2.2907">
        <ele>175.5</ele>
        <time>2016-04-20T08:24:39.000Z</time>
      </trkpt>
      <trkpt lat="43.93354" lon="2.29075">
        <ele>175.8</ele>
        <time>2016-04-20T08:24:46.000Z</time>
      </trkpt>
      <trkpt lat="43.93363" lon="2.29081">
        <ele>176.1</ele>
        <time>2016-04-20T08:24:55.000Z</time>
      </trkpt>
      <trkpt lat="43.93372" lon="2.29087">
        <ele>176.2</ele>
        <time>2016-04-20T08:25:2.000Z</time>
      </trkpt>
      <trkpt lat="43.93381" lon="2.29091">
        <ele>176.3</ele>
        <time>2016-04-20T08:25:9.000Z</time>
      </trkpt>
      <trkpt lat="43.9339" lon="2.29095">
        <ele>176.3</ele>
        <time>2016-04-20T08:25:16.000Z</time>
      </trkpt>
      <trkpt lat="43.934" lon="2.29098">
        <ele>176.3</ele>
        <time>2016-04-20T08:25:23.000Z</time>
      </trkpt>
      <trkpt lat="43.9341" lon="2.29102">
        <ele>176.3</ele>
        <time>2016-04-20T08:25:31.000Z</time>
      </trkpt>
      <trkpt lat="43.93418" lon="2.29107">
        <ele>176.3</ele>
        <time>2016-04-20T08:25:38.000Z</time>
      </trkpt>
      <trkpt lat="43.93425" lon="2.29116">
        <ele>176.4</ele>
        <time>2016-04-20T08:25:47.000Z</time>
      </trkpt>
      <trkpt lat="43.93433" lon="2.29124">
        <ele>176.5</ele>
        <time>2016-04-20T08:25:57.000Z</time>
      </trkpt>
      <trkpt lat="43.9344" lon="2.29134">
        <ele>176.6</ele>
        <time>2016-04-20T08:26:6.000Z</time>
      </trkpt>
      <trkpt lat="43.93447" lon="2.29143">
        <ele>176.8</ele>
        <time>2016-04-20T08:26:13.000Z</time>
      </trkpt>
      <trkpt lat="43.93456" lon="2.29148">
        <ele>177</ele>
        <time>2016-04-20T08:26:21.000Z</time>
      </trkpt>
      <trkpt lat="43.93463" lon="2.29156">
        <ele>177.1</ele>
        <time>2016-04-20T08:26:29.000Z</time>
      </trkpt>
      <trkpt lat="43.93471" lon="2.29162">
        <ele>177.3</ele>
        <time>2016-04-20T08:26:37.000Z</time>
      </trkpt>
      <trkpt lat="43.93481" lon="2.29167">
        <ele>177.6</ele>
        <time>2016-04-20T08:26:45.000Z</time>
      </trkpt>
      <trkpt lat="43.9349" lon="2.29171">
        <ele>178</ele>
        <time>2016-04-20T08:26:51.000Z</time>
      </trkpt>
      <trkpt lat="43.935" lon="2.29174">
        <ele>178.2</ele>
        <time>2016-04-20T08:26:58.000Z</time>
      </trkpt>
      <trkpt lat="43.9351" lon="2.29176">
        <ele>178.5</ele>
        <time>2016-04-20T08:27:6.000Z</time>
      </trkpt>
      <trkpt lat="43.93518" lon="2.29178">
        <ele>178.8</ele>
        <time>2016-04-20T08:27:14.000Z</time>
      </trkpt>
      <trkpt lat="43.93528" lon="2.29181">
        <ele>178.9</ele>
        <time>2016-04-20T08:27:21.000Z</time>
      </trkpt>
      <trkpt lat="43.93538" lon="2.29184">
        <ele>179</ele>
        <time>2016-04-20T08:27:28.000Z</time>
      </trkpt>
      <trkpt lat="43.93547" lon="2.29188">
        <ele>179.2</ele>
        <time>2016-04-20T08:27:35.000Z</time>
      </trkpt>
      <trkpt lat="43.93557" lon="2.2919">
        <ele>179.3</ele>
        <time>2016-04-20T08:27:42.000Z</time>
      </trkpt>
      <trkpt lat="43.93567" lon="2.29193">
        <ele>179.3</ele>
        <time>2016-04-20T08:27:50.000Z</time>
      </trkpt>
      <trkpt lat="43.93576" lon="2.29194">
        <ele>179.5</ele>
        <time>2016-04-20T08:27:58.000Z</time>
      </trkpt>
      <trkpt lat="43.93586" lon="2.29196">
        <ele>179.8</ele>
        <time>2016-04-20T08:28:6.000Z</time>
      </trkpt>
      <trkpt lat="43.93595" lon="2.292">
        <ele>180.5</ele>
        <time>2016-04-20T08:28:13.000Z</time>
      </trkpt>
      <trkpt lat="43.93605" lon="2.29203">
        <ele>181</ele>
        <time>2016-04-20T08:28:21.000Z</time>
      </trkpt>
      <trkpt lat="43.93614" lon="2.29205">
        <ele>181.5</ele>
        <time>2016-04-20T08:28:28.000Z</time>
      </trkpt>
      <trkpt lat="43.93624" lon="2.29207">
        <ele>182</ele>
        <time>2016-04-20T08:28:36.000Z</time>
      </trkpt>
      <trkpt lat="43.93634" lon="2.2921">
        <ele>182.3</ele>
        <time>2016-04-20T08:28:44.000Z</time>
      </trkpt>
      <trkpt lat="43.93643" lon="2.29215">
        <ele>182.5</ele>
        <time>2016-04-20T08:28:51.000Z</time>
      </trkpt>
      <trkpt lat="43.93651" lon="2.29219">
        <ele>183</ele>
        <time>2016-04-20T08:28:58.000Z</time>
      </trkpt>
      <trkpt lat="43.93661" lon="2.2922">
        <ele>183.2</ele>
        <time>2016-04-20T08:29:5.000Z</time>
      </trkpt>
      <trkpt lat="43.9367" lon="2.29221">
        <ele>183.3</ele>
        <time>2016-04-20T08:29:11.000Z</time>
      </trkpt>
      <trkpt lat="43.93679" lon="2.29223">
        <ele>183.4</ele>
        <time>2016-04-20T08:29:19.000Z</time>
      </trkpt>
      <trkpt lat="43.93689" lon="2.29226">
        <ele>183.6</ele>
        <time>2016-04-20T08:29:27.000Z</time>
      </trkpt>
      <trkpt lat="43.93698" lon="2.2923">
        <ele>183.7</ele>
        <time>2016-04-20T08:29:34.000Z</time>
      </trkpt>
      <trkpt lat="43.93708" lon="2.29233">
        <ele>184</ele>
        <time>2016-04-20T08:29:42.000Z</time>
      </trkpt>
      <trkpt lat="43.93716" lon="2.29236">
        <ele>184.3</ele>
        <time>2016-04-20T08:29:50.000Z</time>
      </trkpt>
      <trkpt lat="43.93725" lon="2.29241">
        <ele>184.5</ele>
        <time>2016-04-20T08:29:58.000Z</time>
      </trkpt>
      <trkpt lat="43.93734" lon="2.29245">
        <ele>184.9</ele>
        <time>2016-04-20T08:30:5.000Z</time>
      </trkpt>
      <trkpt lat="43.93743" lon="2.29248">
        <ele>185.5</ele>
        <time>2016-04-20T08:30:12.000Z</time>
      </trkpt>
      <trkpt lat="43.93752" lon="2.29254">
        <ele>186.3</ele>
        <time>2016-04-20T08:30:19.000Z</time>
      </trkpt>
      <trkpt lat="43.93759" lon="2.29262">
        <ele>187.3</ele>
        <time>2016-04-20T08:30:27.000Z</time>
      </trkpt>
      <trkpt lat="43.93769" lon="2.29264">
        <ele>187.8</ele>
        <time>2016-04-20T08:30:34.000Z</time>
      </trkpt>
      <trkpt lat="43.93778" lon="2.29263">
        <ele>188.5</ele>
        <time>2016-04-20T08:30:42.000Z</time>
      </trkpt>
      <trkpt lat="43.93787" lon="2.29261">
        <ele>189.5</ele>
        <time>2016-04-20T08:30:51.000Z</time>
      </trkpt>
      <trkpt lat="43.93796" lon="2.29266">
        <ele>190.4</ele>
        <time>2016-04-20T08:31:0.000Z</time>
      </trkpt>
      <trkpt lat="43.93804" lon="2.29273">
        <ele>191.2</ele>
        <time>2016-04-20T08:31:8.000Z</time>
      </trkpt>
      <trkpt lat="43.93812" lon="2.29281">
        <ele>191.9</ele>
        <time>2016-04-20T08:31:13.000Z</time>
      </trkpt>
      <trkpt lat="43.93821" lon="2.29285">
        <ele>192.8</ele>
        <time>2016-04-20T08:31:20.000Z</time>
      </trkpt>
      <trkpt lat="43.9383" lon="2.2929">
        <ele>193.6</ele>
        <time>2016-04-20T08:31:28.000Z</time>
      </trkpt>
      <trkpt lat="43.9384" lon="2.29293">
        <ele>194.2</ele>
        <time>2016-04-20T08:31:35.000Z</time>
      </trkpt>
      <trkpt lat="43.9385" lon="2.29296">
        <ele>195</ele>
        <time>2016-04-20T08:31:43.000Z</time>
      </trkpt>
      <trkpt lat="43.9386" lon="2.293">
        <ele>195.7</ele>
        <time>2016-04-20T08:31:51.000Z</time>
      </trkpt>
      <trkpt lat="43.93869" lon="2.29306">
        <ele>196.2</ele>
        <time>2016-04-20T08:31:59.000Z</time>
      </trkpt>
      <trkpt lat="43.93878" lon="2.29309">
        <ele>196.8</ele>
        <time>2016-04-20T08:32:7.000Z</time>
      </trkpt>
      <trkpt lat="43.93888" lon="2.29312">
        <ele>197.6</ele>
        <time>2016-04-20T08:32:15.000Z</time>
      </trkpt>
      <trkpt lat="43.93897" lon="2.29316">
        <ele>198.3</ele>
        <time>2016-04-20T08:32:22.000Z</time>
      </trkpt>
      <trkpt lat="43.93906" lon="2.29321">
        <ele>198.8</ele>
        <time>2016-04-20T08:32:29.000Z</time>
      </trkpt>
      <trkpt lat="43.93916" lon="2.29325">
        <ele>199.2</ele>
        <time>2016-04-20T08:32:37.000Z</time>
      </trkpt>
      <trkpt lat="43.93925" lon="2.29328">
        <ele>199.4</ele>
        <time>2016-04-20T08:32:45.000Z</time>
      </trkpt>
      <trkpt lat="43.93934" lon="2.29335">
        <ele>199.8</ele>
        <time>2016-04-20T08:32:54.000Z</time>
      </trkpt>
      <trkpt lat="43.93944" lon="2.29339">
        <ele>200.3</ele>
        <time>2016-04-20T08:33:2.000Z</time>
      </trkpt>
      <trkpt lat="43.93952" lon="2.29346">
        <ele>200.6</ele>
        <time>2016-04-20T08:33:8.000Z</time>
      </trkpt>
      <trkpt lat="43.9396" lon="2.29355">
        <ele>201</ele>
        <time>2016-04-20T08:33:14.000Z</time>
      </trkpt>
      <trkpt lat="43.93967" lon="2.29364">
        <ele>201.4</ele>
        <time>2016-04-20T08:33:20.000Z</time>
      </trkpt>
      <trkpt lat="43.93973" lon="2.29375">
        <ele>202.2</ele>
        <time>2016-04-20T08:33:29.000Z</time>
      </trkpt>
      <trkpt lat="43.93978" lon="2.29387">
        <ele>203.4</ele>
        <time>2016-04-20T08:33:39.000Z</time>
      </trkpt>
      <trkpt lat="43.93968" lon="2.29389">
        <ele>207.4</ele>
        <time>2016-04-20T08:34:21.000Z</time>
      </trkpt>
      <trkpt lat="43.93959" lon="2.29389">
        <ele>208.2</ele>
        <time>2016-04-20T08:34:37.000Z</time>
      </trkpt>
      <trkpt lat="43.93949" lon="2.29391">
        <ele>209.7</ele>
        <time>2016-04-20T08:34:48.000Z</time>
      </trkpt>
      <trkpt lat="43.93941" lon="2.29388">
        <ele>211.2</ele>
        <time>2016-04-20T08:34:59.000Z</time>
      </trkpt>
      <trkpt lat="43.9393" lon="2.29392">
        <ele>212.8</ele>
        <time>2016-04-20T08:35:11.000Z</time>
      </trkpt>
      <trkpt lat="43.93921" lon="2.29391">
        <ele>213.5</ele>
        <time>2016-04-20T08:35:19.000Z</time>
      </trkpt>
      <trkpt lat="43.93912" lon="2.29387">
        <ele>213.9</ele>
        <time>2016-04-20T08:35:25.000Z</time>
      </trkpt>
      <trkpt lat="43.93902" lon="2.29386">
        <ele>214.9</ele>
        <time>2016-04-20T08:35:37.000Z</time>
      </trkpt>
      <trkpt lat="43.93893" lon="2.29385">
        <ele>215.7</ele>
        <time>2016-04-20T08:35:47.000Z</time>
      </trkpt>
      <trkpt lat="43.93884" lon="2.29388">
        <ele>216.5</ele>
        <time>2016-04-20T08:35:55.000Z</time>
      </trkpt>
      <trkpt lat="43.93874" lon="2.29387">
        <ele>217.4</ele>
        <time>2016-04-20T08:36:7.000Z</time>
      </trkpt>
      <trkpt lat="43.93864" lon="2.29386">
        <ele>217.8</ele>
        <time>2016-04-20T08:36:15.000Z</time>
      </trkpt>
      <trkpt lat="43.93855" lon="2.29388">
        <ele>218.7</ele>
        <time>2016-04-20T08:36:25.000Z</time>
      </trkpt>
      <trkpt lat="43.93846" lon="2.29393">
        <ele>220.7</ele>
        <time>2016-04-20T08:36:39.000Z</time>
      </trkpt>
      <trkpt lat="43.93837" lon="2.29394">
        <ele>221.9</ele>
        <time>2016-04-20T08:36:47.000Z</time>
      </trkpt>
      <trkpt lat="43.93828" lon="2.29398">
        <ele>223.7</ele>
        <time>2016-04-20T08:36:58.000Z</time>
      </trkpt>
      <trkpt lat="43.93817" lon="2.294">
        <ele>225.7</ele>
        <time>2016-04-20T08:37:10.000Z</time>
      </trkpt>
      <trkpt lat="43.93808" lon="2.29404">
        <ele>227.3</ele>
        <time>2016-04-20T08:37:21.000Z</time>
      </trkpt>
      <trkpt lat="43.93799" lon="2.29408">
        <ele>229.1</ele>
        <time>2016-04-20T08:37:32.000Z</time>
      </trkpt>
      <trkpt lat="43.93789" lon="2.29411">
        <ele>231</ele>
        <time>2016-04-20T08:37:44.000Z</time>
      </trkpt>
      <trkpt lat="43.9378" lon="2.29414">
        <ele>232.3</ele>
        <time>2016-04-20T08:37:52.000Z</time>
      </trkpt>
      <trkpt lat="43.93772" lon="2.29418">
        <ele>233.4</ele>
        <time>2016-04-20T08:38:0.000Z</time>
      </trkpt>
      <trkpt lat="43.93763" lon="2.29422">
        <ele>235.9</ele>
        <time>2016-04-20T08:38:17.000Z</time>
      </trkpt>
      <trkpt lat="43.93754" lon="2.29428">
        <ele>237.2</ele>
        <time>2016-04-20T08:38:26.000Z</time>
      </trkpt>
      <trkpt lat="43.93745" lon="2.2943">
        <ele>238.4</ele>
        <time>2016-04-20T08:38:34.000Z</time>
      </trkpt>
      <trkpt lat="43.93737" lon="2.29437">
        <ele>240.1</ele>
        <time>2016-04-20T08:38:45.000Z</time>
      </trkpt>
      <trkpt lat="43.93727" lon="2.2944">
        <ele>242.1</ele>
        <time>2016-04-20T08:38:58.000Z</time>
      </trkpt>
      <trkpt lat="43.93718" lon="2.29443">
        <ele>243.1</ele>
        <time>2016-04-20T08:39:5.000Z</time>
      </trkpt>
      <trkpt lat="43.9371" lon="2.29448">
        <ele>244.4</ele>
        <time>2016-04-20T08:39:14.000Z</time>
      </trkpt>
      <trkpt lat="43.93703" lon="2.29457">
        <ele>246.6</ele>
        <time>2016-04-20T08:39:29.000Z</time>
      </trkpt>
      <trkpt lat="43.93694" lon="2.29461">
        <ele>247.7</ele>
        <time>2016-04-20T08:39:37.000Z</time>
      </trkpt>
      <trkpt lat="43.93683" lon="2.29467">
        <ele>248.6</ele>
        <time>2016-04-20T08:39:44.000Z</time>
      </trkpt>
      <trkpt lat="43.93674" lon="2.2947">
        <ele>249.9</ele>
        <time>2016-04-20T08:39:52.000Z</time>
      </trkpt>
      <trkpt lat="43.93667" lon="2.29478">
        <ele>251</ele>
        <time>2016-04-20T08:40:1.000Z</time>
      </trkpt>
      <trkpt lat="43.93659" lon="2.29485">
        <ele>252.4</ele>
        <time>2016-04-20T08:40:10.000Z</time>
      </trkpt>
      <trkpt lat="43.93652" lon="2.29493">
        <ele>254</ele>
        <time>2016-04-20T08:40:21.000Z</time>
      </trkpt>
      <trkpt lat="43.93644" lon="2.29501">
        <ele>255.2</ele>
        <time>2016-04-20T08:40:30.000Z</time>
      </trkpt>
      <trkpt lat="43.93639" lon="2.29512">
        <ele>256.8</ele>
        <time>2016-04-20T08:40:40.000Z</time>
      </trkpt>
      <trkpt lat="43.93632" lon="2.29522">
        <ele>258</ele>
        <time>2016-04-20T08:40:51.000Z</time>
      </trkpt>
      <trkpt lat="43.93627" lon="2.29532">
        <ele>259.5</ele>
        <time>2016-04-20T08:41:2.000Z</time>
      </trkpt>
      <trkpt lat="43.93618" lon="2.29539">
        <ele>260.1</ele>
        <time>2016-04-20T08:41:7.000Z</time>
      </trkpt>
      <trkpt lat="43.93609" lon="2.29541">
        <ele>262.6</ele>
        <time>2016-04-20T08:41:28.000Z</time>
      </trkpt>
      <trkpt lat="43.936" lon="2.29543">
        <ele>263.6</ele>
        <time>2016-04-20T08:41:36.000Z</time>
      </trkpt>
      <trkpt lat="43.93591" lon="2.29544">
        <ele>264.6</ele>
        <time>2016-04-20T08:41:43.000Z</time>
      </trkpt>
      <trkpt lat="43.93581" lon="2.29544">
        <ele>265.7</ele>
        <time>2016-04-20T08:41:50.000Z</time>
      </trkpt>
      <trkpt lat="43.93572" lon="2.29543">
        <ele>266.6</ele>
        <time>2016-04-20T08:41:56.000Z</time>
      </trkpt>
      <trkpt lat="43.93563" lon="2.29544">
        <ele>268.1</ele>
        <time>2016-04-20T08:42:4.000Z</time>
      </trkpt>
      <trkpt lat="43.93553" lon="2.29543">
        <ele>270.1</ele>
        <time>2016-04-20T08:42:14.000Z</time>
      </trkpt>
      <trkpt lat="43.93544" lon="2.29545">
        <ele>271.9</ele>
        <time>2016-04-20T08:42:25.000Z</time>
      </trkpt>
      <trkpt lat="43.93534" lon="2.29547">
        <ele>273.3</ele>
        <time>2016-04-20T08:42:38.000Z</time>
      </trkpt>
      <trkpt lat="43.93525" lon="2.29551">
        <ele>274.2</ele>
        <time>2016-04-20T08:42:50.000Z</time>
      </trkpt>
      <trkpt lat="43.93516" lon="2.29554">
        <ele>274.9</ele>
        <time>2016-04-20T08:43:0.000Z</time>
      </trkpt>
      <trkpt lat="43.93506" lon="2.29557">
        <ele>275.4</ele>
        <time>2016-04-20T08:43:7.000Z</time>
      </trkpt>
      <trkpt lat="43.93497" lon="2.29562">
        <ele>276.1</ele>
        <time>2016-04-20T08:43:15.000Z</time>
      </trkpt>
      <trkpt lat="43.93487" lon="2.29565">
        <ele>276.8</ele>
        <time>2016-04-20T08:43:23.000Z</time>
      </trkpt>
      <trkpt lat="43.93478" lon="2.29569">
        <ele>277.3</ele>
        <time>2016-04-20T08:43:28.000Z</time>
      </trkpt>
      <trkpt lat="43.9347" lon="2.29575">
        <ele>278.2</ele>
        <time>2016-04-20T08:43:38.000Z</time>
      </trkpt>
      <trkpt lat="43.93462" lon="2.29583">
        <ele>278.7</ele>
        <time>2016-04-20T08:43:47.000Z</time>
      </trkpt>
      <trkpt lat="43.93455" lon="2.29591">
        <ele>279.6</ele>
        <time>2016-04-20T08:43:58.000Z</time>
      </trkpt>
      <trkpt lat="43.93443" lon="2.296">
        <ele>279</ele>
        <time>2016-04-20T08:48:42.000Z</time>
      </trkpt>
      <trkpt lat="43.93433" lon="2.29603">
        <ele>279.2</ele>
        <time>2016-04-20T08:48:53.000Z</time>
      </trkpt>
      <trkpt lat="43.93424" lon="2.29607">
        <ele>278.7</ele>
        <time>2016-04-20T08:49:1.000Z</time>
      </trkpt>
      <trkpt lat="43.93414" lon="2.29613">
        <ele>278.4</ele>
        <time>2016-04-20T08:49:6.000Z</time>
      </trkpt>
      <trkpt lat="43.93406" lon="2.29619">
        <ele>278.2</ele>
        <time>2016-04-20T08:49:13.000Z</time>
      </trkpt>
      <trkpt lat="43.93396" lon="2.29621">
        <ele>277.7</ele>
        <time>2016-04-20T08:49:23.000Z</time>
      </trkpt>
      <trkpt lat="43.93386" lon="2.29621">
        <ele>277.9</ele>
        <time>2016-04-20T08:49:35.000Z</time>
      </trkpt>
      <trkpt lat="43.93376" lon="2.29625">
        <ele>278.3</ele>
        <time>2016-04-20T08:49:43.000Z</time>
      </trkpt>
      <trkpt lat="43.93367" lon="2.29626">
        <ele>278.8</ele>
        <time>2016-04-20T08:49:50.000Z</time>
      </trkpt>
      <trkpt lat="43.93358" lon="2.29626">
        <ele>279.1</ele>
        <time>2016-04-20T08:49:57.000Z</time>
      </trkpt>
      <trkpt lat="43.93349" lon="2.29625">
        <ele>279.8</ele>
        <time>2016-04-20T08:50:4.000Z</time>
      </trkpt>
      <trkpt lat="43.93339" lon="2.29623">
        <ele>280.1</ele>
        <time>2016-04-20T08:50:10.000Z</time>
      </trkpt>
      <trkpt lat="43.9333" lon="2.29624">
        <ele>280.4</ele>
        <time>2016-04-20T08:50:21.000Z</time>
      </trkpt>
      <trkpt lat="43.9332" lon="2.29622">
        <ele>280.9</ele>
        <time>2016-04-20T08:50:31.000Z</time>
      </trkpt>
      <trkpt lat="43.9331" lon="2.29621">
        <ele>281.5</ele>
        <time>2016-04-20T08:50:41.000Z</time>
      </trkpt>
      <trkpt lat="43.93301" lon="2.29622">
        <ele>282</ele>
        <time>2016-04-20T08:50:50.000Z</time>
      </trkpt>
      <trkpt lat="43.93291" lon="2.29622">
        <ele>282.3</ele>
        <time>2016-04-20T08:51:0.000Z</time>
      </trkpt>
      <trkpt lat="43.93282" lon="2.29623">
        <ele>282.5</ele>
        <time>2016-04-20T08:51:9.000Z</time>
      </trkpt>
      <trkpt lat="43.93273" lon="2.29621">
        <ele>282.7</ele>
        <time>2016-04-20T08:51:21.000Z</time>
      </trkpt>
      <trkpt lat="43.93263" lon="2.29615">
        <ele>283.2</ele>
        <time>2016-04-20T08:51:30.000Z</time>
      </trkpt>
      <trkpt lat="43.93254" lon="2.29609">
        <ele>283.5</ele>
        <time>2016-04-20T08:51:37.000Z</time>
      </trkpt>
      <trkpt lat="43.93246" lon="2.29603">
        <ele>285.7</ele>
        <time>2016-04-20T08:51:51.000Z</time>
      </trkpt>
      <trkpt lat="43.93237" lon="2.296">
        <ele>287.8</ele>
        <time>2016-04-20T08:52:4.000Z</time>
      </trkpt>
      <trkpt lat="43.93229" lon="2.29607">
        <ele>290.2</ele>
        <time>2016-04-20T08:52:28.000Z</time>
      </trkpt>
      <trkpt lat="43.93227" lon="2.29619">
        <ele>292</ele>
        <time>2016-04-20T08:52:46.000Z</time>
      </trkpt>
      <trkpt lat="43.9323" lon="2.29631">
        <ele>293.2</ele>
        <time>2016-04-20T08:52:55.000Z</time>
      </trkpt>
      <trkpt lat="43.93223" lon="2.2964">
        <ele>295</ele>
        <time>2016-04-20T08:53:6.000Z</time>
      </trkpt>
      <trkpt lat="43.93212" lon="2.29641">
        <ele>295.1</ele>
        <time>2016-04-20T08:53:15.000Z</time>
      </trkpt>
      <trkpt lat="43.93204" lon="2.29635">
        <ele>296.2</ele>
        <time>2016-04-20T08:53:26.000Z</time>
      </trkpt>
      <trkpt lat="43.93196" lon="2.29628">
        <ele>297.6</ele>
        <time>2016-04-20T08:53:37.000Z</time>
      </trkpt>
      <trkpt lat="43.93186" lon="2.29626">
        <ele>299.4</ele>
        <time>2016-04-20T08:53:54.000Z</time>
      </trkpt>
      <trkpt lat="43.93177" lon="2.29625">
        <ele>301.1</ele>
        <time>2016-04-20T08:54:5.000Z</time>
      </trkpt>
      <trkpt lat="43.93169" lon="2.29617">
        <ele>302.1</ele>
        <time>2016-04-20T08:54:18.000Z</time>
      </trkpt>
      <trkpt lat="43.93161" lon="2.29612">
        <ele>302.6</ele>
        <time>2016-04-20T08:54:29.000Z</time>
      </trkpt>
      <trkpt lat="43.93153" lon="2.29604">
        <ele>304</ele>
        <time>2016-04-20T08:54:40.000Z</time>
      </trkpt>
      <trkpt lat="43.93146" lon="2.29611">
        <ele>305.8</ele>
        <time>2016-04-20T08:54:56.000Z</time>
      </trkpt>
      <trkpt lat="43.9314" lon="2.29621">
        <ele>306.8</ele>
        <time>2016-04-20T08:55:6.000Z</time>
      </trkpt>
      <trkpt lat="43.93132" lon="2.29629">
        <ele>307.2</ele>
        <time>2016-04-20T08:55:14.000Z</time>
      </trkpt>
      <trkpt lat="43.93123" lon="2.29632">
        <ele>308.2</ele>
        <time>2016-04-20T08:55:20.000Z</time>
      </trkpt>
      <trkpt lat="43.93113" lon="2.29637">
        <ele>309.2</ele>
        <time>2016-04-20T08:55:27.000Z</time>
      </trkpt>
      <trkpt lat="43.93112" lon="2.2965">
        <ele>312.7</ele>
        <time>2016-04-20T08:55:46.000Z</time>
      </trkpt>
      <trkpt lat="43.93105" lon="2.29657">
        <ele>314.5</ele>
        <time>2016-04-20T08:55:56.000Z</time>
      </trkpt>
      <trkpt lat="43.93097" lon="2.29664">
        <ele>316</ele>
        <time>2016-04-20T08:56:5.000Z</time>
      </trkpt>
      <trkpt lat="43.93088" lon="2.29669">
        <ele>316.6</ele>
        <time>2016-04-20T08:56:13.000Z</time>
      </trkpt>
      <trkpt lat="43.93079" lon="2.29674">
        <ele>317.1</ele>
        <time>2016-04-20T08:56:19.000Z</time>
      </trkpt>
      <trkpt lat="43.93072" lon="2.29682">
        <ele>318.3</ele>
        <time>2016-04-20T08:56:29.000Z</time>
      </trkpt>
      <trkpt lat="43.93063" lon="2.29689">
        <ele>318.9</ele>
        <time>2016-04-20T08:56:36.000Z</time>
      </trkpt>
      <trkpt lat="43.93055" lon="2.29696">
        <ele>319.2</ele>
        <time>2016-04-20T08:56:45.000Z</time>
      </trkpt>
      <trkpt lat="43.93046" lon="2.29701">
        <ele>320.2</ele>
        <time>2016-04-20T08:56:53.000Z</time>
      </trkpt>
      <trkpt lat="43.93036" lon="2.29704">
        <ele>320.3</ele>
        <time>2016-04-20T08:57:1.000Z</time>
      </trkpt>
      <trkpt lat="43.93027" lon="2.29709">
        <ele>321.6</ele>
        <time>2016-04-20T08:57:9.000Z</time>
      </trkpt>
      <trkpt lat="43.93019" lon="2.29715">
        <ele>322.7</ele>
        <time>2016-04-20T08:57:21.000Z</time>
      </trkpt>
      <trkpt lat="43.93011" lon="2.29722">
        <ele>323.7</ele>
        <time>2016-04-20T08:57:31.000Z</time>
      </trkpt>
      <trkpt lat="43.93002" lon="2.29728">
        <ele>324.9</ele>
        <time>2016-04-20T08:57:42.000Z</time>
      </trkpt>
      <trkpt lat="43.92994" lon="2.29734">
        <ele>325.7</ele>
        <time>2016-04-20T08:57:53.000Z</time>
      </trkpt>
      <trkpt lat="43.92986" lon="2.29741">
        <ele>326.8</ele>
        <time>2016-04-20T08:58:3.000Z</time>
      </trkpt>
      <trkpt lat="43.92978" lon="2.29745">
        <ele>327.9</ele>
        <time>2016-04-20T08:58:13.000Z</time>
      </trkpt>
      <trkpt lat="43.92969" lon="2.29748">
        <ele>328.3</ele>
        <time>2016-04-20T08:58:21.000Z</time>
      </trkpt>
      <trkpt lat="43.9296" lon="2.29754">
        <ele>328.8</ele>
        <time>2016-04-20T08:58:30.000Z</time>
      </trkpt>
      <trkpt lat="43.92951" lon="2.29758">
        <ele>329.2</ele>
        <time>2016-04-20T08:58:37.000Z</time>
      </trkpt>
      <trkpt lat="43.92943" lon="2.29761">
        <ele>329.8</ele>
        <time>2016-04-20T08:58:44.000Z</time>
      </trkpt>
      <trkpt lat="43.92933" lon="2.29765">
        <ele>330</ele>
        <time>2016-04-20T08:58:52.000Z</time>
      </trkpt>
      <trkpt lat="43.92923" lon="2.29768">
        <ele>329.9</ele>
        <time>2016-04-20T08:59:1.000Z</time>
      </trkpt>
      <trkpt lat="43.92913" lon="2.29771">
        <ele>330.2</ele>
        <time>2016-04-20T08:59:8.000Z</time>
      </trkpt>
      <trkpt lat="43.92904" lon="2.29773">
        <ele>330.7</ele>
        <time>2016-04-20T08:59:16.000Z</time>
      </trkpt>
      <trkpt lat="43.92894" lon="2.29775">
        <ele>331.4</ele>
        <time>2016-04-20T08:59:26.000Z</time>
      </trkpt>
      <trkpt lat="43.92885" lon="2.29774">
        <ele>331.5</ele>
        <time>2016-04-20T08:59:32.000Z</time>
      </trkpt>
      <trkpt lat="43.92875" lon="2.29774">
        <ele>331.7</ele>
        <time>2016-04-20T08:59:38.000Z</time>
      </trkpt>
      <trkpt lat="43.92866" lon="2.29773">
        <ele>332.2</ele>
        <time>2016-04-20T08:59:45.000Z</time>
      </trkpt>
      <trkpt lat="43.92857" lon="2.29767">
        <ele>332.8</ele>
        <time>2016-04-20T08:59:53.000Z</time>
      </trkpt>
      <trkpt lat="43.92847" lon="2.29762">
        <ele>333.6</ele>
        <time>2016-04-20T09:00:2.000Z</time>
      </trkpt>
      <trkpt lat="43.92838" lon="2.29761">
        <ele>334.3</ele>
        <time>2016-04-20T09:00:11.000Z</time>
      </trkpt>
      <trkpt lat="43.92829" lon="2.29759">
        <ele>334.8</ele>
        <time>2016-04-20T09:00:19.000Z</time>
      </trkpt>
      <trkpt lat="43.92819" lon="2.2976">
        <ele>335.8</ele>
        <time>2016-04-20T09:00:27.000Z</time>
      </trkpt>
      <trkpt lat="43.9281" lon="2.29754">
        <ele>336.6</ele>
        <time>2016-04-20T09:00:35.000Z</time>
      </trkpt>
      <trkpt lat="43.92802" lon="2.29749">
        <ele>336.8</ele>
        <time>2016-04-20T09:00:44.000Z</time>
      </trkpt>
      <trkpt lat="43.92792" lon="2.29745">
        <ele>337.3</ele>
        <time>2016-04-20T09:00:52.000Z</time>
      </trkpt>
      <trkpt lat="43.92783" lon="2.29741">
        <ele>337.1</ele>
        <time>2016-04-20T09:01:0.000Z</time>
      </trkpt>
      <trkpt lat="43.92773" lon="2.29736">
        <ele>337.7</ele>
        <time>2016-04-20T09:01:8.000Z</time>
      </trkpt>
      <trkpt lat="43.92764" lon="2.29731">
        <ele>338.8</ele>
        <time>2016-04-20T09:01:16.000Z</time>
      </trkpt>
      <trkpt lat="43.92755" lon="2.29728">
        <ele>339.2</ele>
        <time>2016-04-20T09:01:24.000Z</time>
      </trkpt>
      <trkpt lat="43.92746" lon="2.29726">
        <ele>339.5</ele>
        <time>2016-04-20T09:01:30.000Z</time>
      </trkpt>
      <trkpt lat="43.92735" lon="2.29724">
        <ele>339.9</ele>
        <time>2016-04-20T09:01:36.000Z</time>
      </trkpt>
      <trkpt lat="43.92725" lon="2.29723">
        <ele>340</ele>
        <time>2016-04-20T09:01:42.000Z</time>
      </trkpt>
      <trkpt lat="43.92715" lon="2.29721">
        <ele>340.2</ele>
        <time>2016-04-20T09:01:48.000Z</time>
      </trkpt>
      <trkpt lat="43.92706" lon="2.29717">
        <ele>340.5</ele>
        <time>2016-04-20T09:01:55.000Z</time>
      </trkpt>
      <trkpt lat="43.92697" lon="2.29711">
        <ele>340.7</ele>
        <time>2016-04-20T09:02:3.000Z</time>
      </trkpt>
      <trkpt lat="43.92687" lon="2.29713">
        <ele>340.9</ele>
        <time>2016-04-20T09:02:10.000Z</time>
      </trkpt>
      <trkpt lat="43.92678" lon="2.29712">
        <ele>340.9</ele>
        <time>2016-04-20T09:02:17.000Z</time>
      </trkpt>
      <trkpt lat="43.92668" lon="2.29713">
        <ele>341</ele>
        <time>2016-04-20T09:02:24.000Z</time>
      </trkpt>
      <trkpt lat="43.92658" lon="2.29714">
        <ele>341</ele>
        <time>2016-04-20T09:02:32.000Z</time>
      </trkpt>
      <trkpt lat="43.92649" lon="2.29711">
        <ele>340.9</ele>
        <time>2016-04-20T09:02:40.000Z</time>
      </trkpt>
      <trkpt lat="43.92638" lon="2.2971">
        <ele>340.7</ele>
        <time>2016-04-20T09:02:49.000Z</time>
      </trkpt>
      <trkpt lat="43.92629" lon="2.29707">
        <ele>340.4</ele>
        <time>2016-04-20T09:02:56.000Z</time>
      </trkpt>
      <trkpt lat="43.9263" lon="2.2972">
        <ele>340.5</ele>
        <time>2016-04-20T09:03:5.000Z</time>
      </trkpt>
      <trkpt lat="43.92631" lon="2.29734">
        <ele>340.2</ele>
        <time>2016-04-20T09:03:34.000Z</time>
      </trkpt>
      <trkpt lat="43.92637" lon="2.29747">
        <ele>340.2</ele>
        <time>2016-04-20T09:03:45.000Z</time>
      </trkpt>
      <trkpt lat="43.9264" lon="2.29759">
        <ele>340.3</ele>
        <time>2016-04-20T09:03:54.000Z</time>
      </trkpt>
      <trkpt lat="43.92648" lon="2.29766">
        <ele>340.3</ele>
        <time>2016-04-20T09:04:1.000Z</time>
      </trkpt>
      <trkpt lat="43.92651" lon="2.29778">
        <ele>340.3</ele>
        <time>2016-04-20T09:04:7.000Z</time>
      </trkpt>
      <trkpt lat="43.92654" lon="2.29791">
        <ele>340.4</ele>
        <time>2016-04-20T09:04:17.000Z</time>
      </trkpt>
      <trkpt lat="43.92662" lon="2.298">
        <ele>340.2</ele>
        <time>2016-04-20T09:04:25.000Z</time>
      </trkpt>
      <trkpt lat="43.92669" lon="2.29808">
        <ele>340</ele>
        <time>2016-04-20T09:04:33.000Z</time>
      </trkpt>
      <trkpt lat="43.92673" lon="2.2982">
        <ele>339.5</ele>
        <time>2016-04-20T09:04:44.000Z</time>
      </trkpt>
      <trkpt lat="43.92675" lon="2.29833">
        <ele>339.3</ele>
        <time>2016-04-20T09:04:54.000Z</time>
      </trkpt>
      <trkpt lat="43.92678" lon="2.29846">
        <ele>339</ele>
        <time>2016-04-20T09:05:2.000Z</time>
      </trkpt>
      <trkpt lat="43.92683" lon="2.29858">
        <ele>339.6</ele>
        <time>2016-04-20T09:05:12.000Z</time>
      </trkpt>
      <trkpt lat="43.92686" lon="2.2987">
        <ele>339.5</ele>
        <time>2016-04-20T09:05:19.000Z</time>
      </trkpt>
      <trkpt lat="43.92688" lon="2.29884">
        <ele>339.9</ele>
        <time>2016-04-20T09:05:28.000Z</time>
      </trkpt>
      <trkpt lat="43.92687" lon="2.29898">
        <ele>339.8</ele>
        <time>2016-04-20T09:05:37.000Z</time>
      </trkpt>
      <trkpt lat="43.92686" lon="2.29911">
        <ele>339.7</ele>
        <time>2016-04-20T09:05:44.000Z</time>
      </trkpt>
      <trkpt lat="43.92684" lon="2.29924">
        <ele>339.8</ele>
        <time>2016-04-20T09:05:53.000Z</time>
      </trkpt>
      <trkpt lat="43.92684" lon="2.29937">
        <ele>340.4</ele>
        <time>2016-04-20T09:06:2.000Z</time>
      </trkpt>
      <trkpt lat="43.92686" lon="2.2995">
        <ele>341.1</ele>
        <time>2016-04-20T09:06:10.000Z</time>
      </trkpt>
      <trkpt lat="43.92687" lon="2.29964">
        <ele>342.3</ele>
        <time>2016-04-20T09:06:20.000Z</time>
      </trkpt>
      <trkpt lat="43.92693" lon="2.29975">
        <ele>343.3</ele>
        <time>2016-04-20T09:06:29.000Z</time>
      </trkpt>
      <trkpt lat="43.927" lon="2.29984">
        <ele>344</ele>
        <time>2016-04-20T09:06:36.000Z</time>
      </trkpt>
      <trkpt lat="43.92706" lon="2.29995">
        <ele>344.3</ele>
        <time>2016-04-20T09:06:44.000Z</time>
      </trkpt>
      <trkpt lat="43.92712" lon="2.30006">
        <ele>344.9</ele>
        <time>2016-04-20T09:06:54.000Z</time>
      </trkpt>
      <trkpt lat="43.92718" lon="2.30015">
        <ele>345.3</ele>
        <time>2016-04-20T09:07:2.000Z</time>
      </trkpt>
      <trkpt lat="43.92725" lon="2.30025">
        <ele>345</ele>
        <time>2016-04-20T09:07:11.000Z</time>
      </trkpt>
      <trkpt lat="43.9273" lon="2.30037">
        <ele>344.9</ele>
        <time>2016-04-20T09:07:21.000Z</time>
      </trkpt>
      <trkpt lat="43.92736" lon="2.30047">
        <ele>344.9</ele>
        <time>2016-04-20T09:07:29.000Z</time>
      </trkpt>
      <trkpt lat="43.92743" lon="2.30056">
        <ele>344.8</ele>
        <time>2016-04-20T09:07:38.000Z</time>
      </trkpt>
      <trkpt lat="43.92751" lon="2.30065">
        <ele>343.5</ele>
        <time>2016-04-20T09:07:48.000Z</time>
      </trkpt>
      <trkpt lat="43.92753" lon="2.30078">
        <ele>342.4</ele>
        <time>2016-04-20T09:07:59.000Z</time>
      </trkpt>
      <trkpt lat="43.92757" lon="2.3009">
        <ele>341</ele>
        <time>2016-04-20T09:08:9.000Z</time>
      </trkpt>
      <trkpt lat="43.9276" lon="2.30102">
        <ele>339.2</ele>
        <time>2016-04-20T09:08:18.000Z</time>
      </trkpt>
      <trkpt lat="43.92758" lon="2.30115">
        <ele>338.5</ele>
        <time>2016-04-20T09:08:25.000Z</time>
      </trkpt>
      <trkpt lat="43.92761" lon="2.30127">
        <ele>336.6</ele>
        <time>2016-04-20T09:08:34.000Z</time>
      </trkpt>
      <trkpt lat="43.92765" lon="2.3014">
        <ele>335.2</ele>
        <time>2016-04-20T09:08:43.000Z</time>
      </trkpt>
      <trkpt lat="43.92769" lon="2.30153">
        <ele>334.6</ele>
        <time>2016-04-20T09:08:50.000Z</time>
      </trkpt>
      <trkpt lat="43.92775" lon="2.30164">
        <ele>333.8</ele>
        <time>2016-04-20T09:08:58.000Z</time>
      </trkpt>
      <trkpt lat="43.92777" lon="2.30177">
        <ele>333.1</ele>
        <time>2016-04-20T09:09:7.000Z</time>
      </trkpt>
      <trkpt lat="43.92779" lon="2.3019">
        <ele>332.3</ele>
        <time>2016-04-20T09:09:17.000Z</time>
      </trkpt>
      <trkpt lat="43.92785" lon="2.30201">
        <ele>330.7</ele>
        <time>2016-04-20T09:09:29.000Z</time>
      </trkpt>
      <trkpt lat="43.92791" lon="2.30211">
        <ele>330</ele>
        <time>2016-04-20T09:09:34.000Z</time>
      </trkpt>
      <trkpt lat="43.92799" lon="2.30218">
        <ele>328.6</ele>
        <time>2016-04-20T09:09:41.000Z</time>
      </trkpt>
      <trkpt lat="43.92808" lon="2.3022">
        <ele>327.7</ele>
        <time>2016-04-20T09:09:48.000Z</time>
      </trkpt>
      <trkpt lat="43.92819" lon="2.3022">
        <ele>326.4</ele>
        <time>2016-04-20T09:09:57.000Z</time>
      </trkpt>
      <trkpt lat="43.92829" lon="2.30219">
        <ele>325.6</ele>
        <time>2016-04-20T09:10:2.000Z</time>
      </trkpt>
      <trkpt lat="43.92838" lon="2.30214">
        <ele>322.4</ele>
        <time>2016-04-20T09:10:18.000Z</time>
      </trkpt>
      <trkpt lat="43.92846" lon="2.30209">
        <ele>320.7</ele>
        <time>2016-04-20T09:10:30.000Z</time>
      </trkpt>
      <trkpt lat="43.92856" lon="2.3021">
        <ele>318.7</ele>
        <time>2016-04-20T09:10:44.000Z</time>
      </trkpt>
      <trkpt lat="43.92864" lon="2.30204">
        <ele>317.4</ele>
        <time>2016-04-20T09:10:55.000Z</time>
      </trkpt>
      <trkpt lat="43.92873" lon="2.30196">
        <ele>316.4</ele>
        <time>2016-04-20T09:11:5.000Z</time>
      </trkpt>
      <trkpt lat="43.92877" lon="2.30184">
        <ele>316</ele>
        <time>2016-04-20T09:11:12.000Z</time>
      </trkpt>
      <trkpt lat="43.92884" lon="2.30192">
        <ele>313.7</ele>
        <time>2016-04-20T09:12:54.000Z</time>
      </trkpt>
      <trkpt lat="43.92883" lon="2.30205">
        <ele>312.3</ele>
        <time>2016-04-20T09:13:8.000Z</time>
      </trkpt>
      <trkpt lat="43.9288" lon="2.30217">
        <ele>310.9</ele>
        <time>2016-04-20T09:13:20.000Z</time>
      </trkpt>
      <trkpt lat="43.92878" lon="2.3023">
        <ele>309</ele>
        <time>2016-04-20T09:13:31.000Z</time>
      </trkpt>
      <trkpt lat="43.92878" lon="2.30242">
        <ele>307.5</ele>
        <time>2016-04-20T09:13:40.000Z</time>
      </trkpt>
      <trkpt lat="43.9288" lon="2.30255">
        <ele>306.3</ele>
        <time>2016-04-20T09:13:47.000Z</time>
      </trkpt>
      <trkpt lat="43.92883" lon="2.30267">
        <ele>304.8</ele>
        <time>2016-04-20T09:13:55.000Z</time>
      </trkpt>
      <trkpt lat="43.92883" lon="2.30281">
        <ele>303.1</ele>
        <time>2016-04-20T09:14:6.000Z</time>
      </trkpt>
      <trkpt lat="43.9288" lon="2.30293">
        <ele>301.4</ele>
        <time>2016-04-20T09:14:18.000Z</time>
      </trkpt>
      <trkpt lat="43.92877" lon="2.30306">
        <ele>300.2</ele>
        <time>2016-04-20T09:14:27.000Z</time>
      </trkpt>
      <trkpt lat="43.92876" lon="2.30319">
        <ele>299.2</ele>
        <time>2016-04-20T09:14:34.000Z</time>
      </trkpt>
      <trkpt lat="43.92874" lon="2.30332">
        <ele>297.1</ele>
        <time>2016-04-20T09:14:47.000Z</time>
      </trkpt>
      <trkpt lat="43.92866" lon="2.30341">
        <ele>295.4</ele>
        <time>2016-04-20T09:14:58.000Z</time>
      </trkpt>
      <trkpt lat="43.92857" lon="2.30342">
        <ele>294.3</ele>
        <time>2016-04-20T09:15:6.000Z</time>
      </trkpt>
      <trkpt lat="43.92847" lon="2.3034">
        <ele>292.9</ele>
        <time>2016-04-20T09:15:15.000Z</time>
      </trkpt>
      <trkpt lat="43.92838" lon="2.30337">
        <ele>290.8</ele>
        <time>2016-04-20T09:15:26.000Z</time>
      </trkpt>
      <trkpt lat="43.92829" lon="2.30341">
        <ele>289.7</ele>
        <time>2016-04-20T09:15:36.000Z</time>
      </trkpt>
      <trkpt lat="43.92823" lon="2.3035">
        <ele>288.7</ele>
        <time>2016-04-20T09:15:45.000Z</time>
      </trkpt>
      <trkpt lat="43.92815" lon="2.30358">
        <ele>287.7</ele>
        <time>2016-04-20T09:15:53.000Z</time>
      </trkpt>
      <trkpt lat="43.92807" lon="2.30366">
        <ele>286.3</ele>
        <time>2016-04-20T09:16:4.000Z</time>
      </trkpt>
      <trkpt lat="43.92798" lon="2.30371">
        <ele>285.1</ele>
        <time>2016-04-20T09:16:12.000Z</time>
      </trkpt>
      <trkpt lat="43.92789" lon="2.30376">
        <ele>284.2</ele>
        <time>2016-04-20T09:16:24.000Z</time>
      </trkpt>
      <trkpt lat="43.92778" lon="2.30375">
        <ele>283.6</ele>
        <time>2016-04-20T09:16:33.000Z</time>
      </trkpt>
      <trkpt lat="43.9277" lon="2.30367">
        <ele>283.2</ele>
        <time>2016-04-20T09:16:41.000Z</time>
      </trkpt>
      <trkpt lat="43.92768" lon="2.30381">
        <ele>281.7</ele>
        <time>2016-04-20T09:16:54.000Z</time>
      </trkpt>
      <trkpt lat="43.92775" lon="2.30389">
        <ele>280</ele>
        <time>2016-04-20T09:17:2.000Z</time>
      </trkpt>
      <trkpt lat="43.92777" lon="2.30402">
        <ele>277.4</ele>
        <time>2016-04-20T09:17:17.000Z</time>
      </trkpt>
      <trkpt lat="43.92784" lon="2.30409">
        <ele>275.7</ele>
        <time>2016-04-20T09:17:29.000Z</time>
      </trkpt>
      <trkpt lat="43.92793" lon="2.3041">
        <ele>274.1</ele>
        <time>2016-04-20T09:17:44.000Z</time>
      </trkpt>
      <trkpt lat="43.92801" lon="2.30403">
        <ele>272.3</ele>
        <time>2016-04-20T09:17:57.000Z</time>
      </trkpt>
      <trkpt lat="43.92814" lon="2.30401">
        <ele>268</ele>
        <time>2016-04-20T09:18:23.000Z</time>
      </trkpt>
      <trkpt lat="43.92826" lon="2.304">
        <ele>265.3</ele>
        <time>2016-04-20T09:18:49.000Z</time>
      </trkpt>
      <trkpt lat="43.92835" lon="2.30403">
        <ele>263.9</ele>
        <time>2016-04-20T09:19:2.000Z</time>
      </trkpt>
      <trkpt lat="43.92844" lon="2.30409">
        <ele>262.2</ele>
        <time>2016-04-20T09:19:14.000Z</time>
      </trkpt>
      <trkpt lat="43.9285" lon="2.30419">
        <ele>260.3</ele>
        <time>2016-04-20T09:19:26.000Z</time>
      </trkpt>
      <trkpt lat="43.92857" lon="2.30427">
        <ele>258.8</ele>
        <time>2016-04-20T09:19:37.000Z</time>
      </trkpt>
      <trkpt lat="43.92866" lon="2.30431">
        <ele>257.2</ele>
        <time>2016-04-20T09:19:49.000Z</time>
      </trkpt>
      <trkpt lat="43.92874" lon="2.30438">
        <ele>255.5</ele>
        <time>2016-04-20T09:20:5.000Z</time>
      </trkpt>
      <trkpt lat="43.92884" lon="2.30437">
        <ele>253.5</ele>
        <time>2016-04-20T09:20:21.000Z</time>
      </trkpt>
      <trkpt lat="43.92893" lon="2.30436">
        <ele>251</ele>
        <time>2016-04-20T09:20:42.000Z</time>
      </trkpt>
      <trkpt lat="43.92902" lon="2.30434">
        <ele>249.3</ele>
        <time>2016-04-20T09:20:53.000Z</time>
      </trkpt>
      <trkpt lat="43.92911" lon="2.30436">
        <ele>247.3</ele>
        <time>2016-04-20T09:21:5.000Z</time>
      </trkpt>
      <trkpt lat="43.9292" lon="2.30437">
        <ele>246.1</ele>
        <time>2016-04-20T09:21:14.000Z</time>
      </trkpt>
      <trkpt lat="43.9293" lon="2.30437">
        <ele>243.6</ele>
        <time>2016-04-20T09:21:33.000Z</time>
      </trkpt>
      <trkpt lat="43.92944" lon="2.3044">
        <ele>239.5</ele>
        <time>2016-04-20T09:22:4.000Z</time>
      </trkpt>
      <trkpt lat="43.92954" lon="2.30441">
        <ele>237.8</ele>
        <time>2016-04-20T09:22:14.000Z</time>
      </trkpt>
      <trkpt lat="43.92963" lon="2.30441">
        <ele>235.8</ele>
        <time>2016-04-20T09:22:26.000Z</time>
      </trkpt>
      <trkpt lat="43.92972" lon="2.30443">
        <ele>234.1</ele>
        <time>2016-04-20T09:22:39.000Z</time>
      </trkpt>
      <trkpt lat="43.92985" lon="2.30446">
        <ele>232</ele>
        <time>2016-04-20T09:22:58.000Z</time>
      </trkpt>
      <trkpt lat="43.92994" lon="2.30446">
        <ele>230.6</ele>
        <time>2016-04-20T09:23:9.000Z</time>
      </trkpt>
      <trkpt lat="43.93004" lon="2.30445">
        <ele>229.4</ele>
        <time>2016-04-20T09:23:19.000Z</time>
      </trkpt>
      <trkpt lat="43.93014" lon="2.30448">
        <ele>228.1</ele>
        <time>2016-04-20T09:23:32.000Z</time>
      </trkpt>
      <trkpt lat="43.93023" lon="2.3045">
        <ele>226.9</ele>
        <time>2016-04-20T09:23:41.000Z</time>
      </trkpt>
      <trkpt lat="43.93032" lon="2.30453">
        <ele>225.5</ele>
        <time>2016-04-20T09:23:52.000Z</time>
      </trkpt>
      <trkpt lat="43.93041" lon="2.30452">
        <ele>224.8</ele>
        <time>2016-04-20T09:24:0.000Z</time>
      </trkpt>
      <trkpt lat="43.93049" lon="2.30445">
        <ele>223.5</ele>
        <time>2016-04-20T09:24:12.000Z</time>
      </trkpt>
      <trkpt lat="43.93056" lon="2.30435">
        <ele>222.1</ele>
        <time>2016-04-20T09:24:27.000Z</time>
      </trkpt>
      <trkpt lat="43.93056" lon="2.30423">
        <ele>220.4</ele>
        <time>2016-04-20T09:24:38.000Z</time>
      </trkpt>
      <trkpt lat="43.93059" lon="2.30411">
        <ele>218</ele>
        <time>2016-04-20T09:24:51.000Z</time>
      </trkpt>
      <trkpt lat="43.93062" lon="2.30399">
        <ele>215.9</ele>
        <time>2016-04-20T09:25:4.000Z</time>
      </trkpt>
      <trkpt lat="43.93066" lon="2.30387">
        <ele>213.6</ele>
        <time>2016-04-20T09:25:17.000Z</time>
      </trkpt>
      <trkpt lat="43.93073" lon="2.30378">
        <ele>211.8</ele>
        <time>2016-04-20T09:25:29.000Z</time>
      </trkpt>
      <trkpt lat="43.9308" lon="2.30369">
        <ele>210</ele>
        <time>2016-04-20T09:25:39.000Z</time>
      </trkpt>
      <trkpt lat="43.93086" lon="2.30359">
        <ele>208.7</ele>
        <time>2016-04-20T09:25:49.000Z</time>
      </trkpt>
      <trkpt lat="43.93094" lon="2.30351">
        <ele>207.5</ele>
        <time>2016-04-20T09:25:59.000Z</time>
      </trkpt>
      <trkpt lat="43.93102" lon="2.30346">
        <ele>205</ele>
        <time>2016-04-20T09:26:13.000Z</time>
      </trkpt>
      <trkpt lat="43.93112" lon="2.30349">
        <ele>201.8</ele>
        <time>2016-04-20T09:26:37.000Z</time>
      </trkpt>
      <trkpt lat="43.93114" lon="2.30362">
        <ele>199.4</ele>
        <time>2016-04-20T09:26:58.000Z</time>
      </trkpt>
      <trkpt lat="43.93118" lon="2.30374">
        <ele>198</ele>
        <time>2016-04-20T09:27:6.000Z</time>
      </trkpt>
      <trkpt lat="43.93122" lon="2.30387">
        <ele>196.8</ele>
        <time>2016-04-20T09:27:13.000Z</time>
      </trkpt>
      <trkpt lat="43.93123" lon="2.304">
        <ele>195.8</ele>
        <time>2016-04-20T09:27:24.000Z</time>
      </trkpt>
      <trkpt lat="43.93125" lon="2.30412">
        <ele>195.3</ele>
        <time>2016-04-20T09:27:33.000Z</time>
      </trkpt>
      <trkpt lat="43.93126" lon="2.30425">
        <ele>194.9</ele>
        <time>2016-04-20T09:27:42.000Z</time>
      </trkpt>
      <trkpt lat="43.93129" lon="2.30437">
        <ele>193.6</ele>
        <time>2016-04-20T09:27:53.000Z</time>
      </trkpt>
      <trkpt lat="43.93134" lon="2.30449">
        <ele>192.3</ele>
        <time>2016-04-20T09:28:3.000Z</time>
      </trkpt>
      <trkpt lat="43.93143" lon="2.30455">
        <ele>191.5</ele>
        <time>2016-04-20T09:28:12.000Z</time>
      </trkpt>
      <trkpt lat="43.93151" lon="2.30461">
        <ele>190.2</ele>
        <time>2016-04-20T09:28:24.000Z</time>
      </trkpt>
      <trkpt lat="43.93149" lon="2.30447">
        <ele>188.8</ele>
        <time>2016-04-20T09:30:4.000Z</time>
      </trkpt>
      <trkpt lat="43.93149" lon="2.30435">
        <ele>189</ele>
        <time>2016-04-20T09:30:14.000Z</time>
      </trkpt>
      <trkpt lat="43.93153" lon="2.30423">
        <ele>189.3</ele>
        <time>2016-04-20T09:30:23.000Z</time>
      </trkpt>
      <trkpt lat="43.93153" lon="2.30409">
        <ele>189.2</ele>
        <time>2016-04-20T09:30:34.000Z</time>
      </trkpt>
      <trkpt lat="43.93149" lon="2.30397">
        <ele>189.3</ele>
        <time>2016-04-20T09:30:42.000Z</time>
      </trkpt>
      <trkpt lat="43.93148" lon="2.30385">
        <ele>189.4</ele>
        <time>2016-04-20T09:30:50.000Z</time>
      </trkpt>
      <trkpt lat="43.93148" lon="2.30372">
        <ele>189.1</ele>
        <time>2016-04-20T09:30:58.000Z</time>
      </trkpt>
      <trkpt lat="43.9315" lon="2.30359">
        <ele>189.2</ele>
        <time>2016-04-20T09:31:5.000Z</time>
      </trkpt>
      <trkpt lat="43.93155" lon="2.30347">
        <ele>189.5</ele>
        <time>2016-04-20T09:31:11.000Z</time>
      </trkpt>
      <trkpt lat="43.93155" lon="2.30333">
        <ele>189.3</ele>
        <time>2016-04-20T09:31:19.000Z</time>
      </trkpt>
      <trkpt lat="43.93155" lon="2.3032">
        <ele>189</ele>
        <time>2016-04-20T09:31:27.000Z</time>
      </trkpt>
      <trkpt lat="43.93157" lon="2.30307">
        <ele>188.9</ele>
        <time>2016-04-20T09:31:34.000Z</time>
      </trkpt>
      <trkpt lat="43.93159" lon="2.30293">
        <ele>188.8</ele>
        <time>2016-04-20T09:31:42.000Z</time>
      </trkpt>
      <trkpt lat="43.93159" lon="2.30278">
        <ele>188.8</ele>
        <time>2016-04-20T09:31:49.000Z</time>
      </trkpt>
      <trkpt lat="43.93162" lon="2.30266">
        <ele>188.7</ele>
        <time>2016-04-20T09:31:57.000Z</time>
      </trkpt>
      <trkpt lat="43.93166" lon="2.30253">
        <ele>188.8</ele>
        <time>2016-04-20T09:32:5.000Z</time>
      </trkpt>
      <trkpt lat="43.93168" lon="2.3024">
        <ele>189.3</ele>
        <time>2016-04-20T09:32:12.000Z</time>
      </trkpt>
      <trkpt lat="43.93171" lon="2.30227">
        <ele>189.3</ele>
        <time>2016-04-20T09:32:20.000Z</time>
      </trkpt>
      <trkpt lat="43.93174" lon="2.30214">
        <ele>188.8</ele>
        <time>2016-04-20T09:32:29.000Z</time>
      </trkpt>
      <trkpt lat="43.93179" lon="2.30203">
        <ele>189.5</ele>
        <time>2016-04-20T09:32:37.000Z</time>
      </trkpt>
      <trkpt lat="43.93186" lon="2.30194">
        <ele>189.5</ele>
        <time>2016-04-20T09:32:42.000Z</time>
      </trkpt>
      <trkpt lat="43.93187" lon="2.3018">
        <ele>189.4</ele>
        <time>2016-04-20T09:32:49.000Z</time>
      </trkpt>
      <trkpt lat="43.93191" lon="2.30169">
        <ele>189.4</ele>
        <time>2016-04-20T09:32:57.000Z</time>
      </trkpt>
      <trkpt lat="43.93199" lon="2.30161">
        <ele>189</ele>
        <time>2016-04-20T09:33:3.000Z</time>
      </trkpt>
      <trkpt lat="43.93201" lon="2.30148">
        <ele>189</ele>
        <time>2016-04-20T09:33:12.000Z</time>
      </trkpt>
      <trkpt lat="43.93201" lon="2.30135">
        <ele>189.1</ele>
        <time>2016-04-20T09:33:20.000Z</time>
      </trkpt>
      <trkpt lat="43.93203" lon="2.30122">
        <ele>189.1</ele>
        <time>2016-04-20T09:33:28.000Z</time>
      </trkpt>
      <trkpt lat="43.93201" lon="2.30109">
        <ele>188.9</ele>
        <time>2016-04-20T09:33:36.000Z</time>
      </trkpt>
      <trkpt lat="43.93203" lon="2.30096">
        <ele>188.9</ele>
        <time>2016-04-20T09:33:44.000Z</time>
      </trkpt>
      <trkpt lat="43.93208" lon="2.30084">
        <ele>189</ele>
        <time>2016-04-20T09:33:51.000Z</time>
      </trkpt>
      <trkpt lat="43.93211" lon="2.30072">
        <ele>189.2</ele>
        <time>2016-04-20T09:34:0.000Z</time>
      </trkpt>
      <trkpt lat="43.93214" lon="2.3006">
        <ele>189.3</ele>
        <time>2016-04-20T09:34:8.000Z</time>
      </trkpt>
      <trkpt lat="43.93218" lon="2.30048">
        <ele>189.3</ele>
        <time>2016-04-20T09:34:14.000Z</time>
      </trkpt>
      <trkpt lat="43.93219" lon="2.30035">
        <ele>189.4</ele>
        <time>2016-04-20T09:34:24.000Z</time>
      </trkpt>
      <trkpt lat="43.93219" lon="2.30022">
        <ele>189.4</ele>
        <time>2016-04-20T09:34:32.000Z</time>
      </trkpt>
      <trkpt lat="43.93223" lon="2.3001">
        <ele>189.4</ele>
        <time>2016-04-20T09:34:41.000Z</time>
      </trkpt>
      <trkpt lat="43.9323" lon="2.3">
        <ele>189.4</ele>
        <time>2016-04-20T09:34:46.000Z</time>
      </trkpt>
      <trkpt lat="43.93231" lon="2.29987">
        <ele>189.4</ele>
        <time>2016-04-20T09:34:54.000Z</time>
      </trkpt>
      <trkpt lat="43.93237" lon="2.29978">
        <ele>189.5</ele>
        <time>2016-04-20T09:34:59.000Z</time>
      </trkpt>
      <trkpt lat="43.93241" lon="2.29965">
        <ele>189.4</ele>
        <time>2016-04-20T09:35:7.000Z</time>
      </trkpt>
      <trkpt lat="43.93246" lon="2.29954">
        <ele>189.4</ele>
        <time>2016-04-20T09:35:14.000Z</time>
      </trkpt>
      <trkpt lat="43.9325" lon="2.29942">
        <ele>189.6</ele>
        <time>2016-04-20T09:35:20.000Z</time>
      </trkpt>
      <trkpt lat="43.93255" lon="2.29931">
        <ele>189.8</ele>
        <time>2016-04-20T09:35:28.000Z</time>
      </trkpt>
      <trkpt lat="43.93259" lon="2.29917">
        <ele>190.3</ele>
        <time>2016-04-20T09:35:37.000Z</time>
      </trkpt>
      <trkpt lat="43.93266" lon="2.29909">
        <ele>190.6</ele>
        <time>2016-04-20T09:35:43.000Z</time>
      </trkpt>
      <trkpt lat="43.93273" lon="2.299">
        <ele>190.8</ele>
        <time>2016-04-20T09:35:49.000Z</time>
      </trkpt>
      <trkpt lat="43.93278" lon="2.29889">
        <ele>190.6</ele>
        <time>2016-04-20T09:35:57.000Z</time>
      </trkpt>
      <trkpt lat="43.93285" lon="2.2988">
        <ele>190.6</ele>
        <time>2016-04-20T09:36:4.000Z</time>
      </trkpt>
      <trkpt lat="43.93292" lon="2.29872">
        <ele>190.5</ele>
        <time>2016-04-20T09:36:13.000Z</time>
      </trkpt>
      <trkpt lat="43.93299" lon="2.29862">
        <ele>189.7</ele>
        <time>2016-04-20T09:36:23.000Z</time>
      </trkpt>
      <trkpt lat="43.93293" lon="2.29852">
        <ele>189.1</ele>
        <time>2016-04-20T09:36:35.000Z</time>
      </trkpt>
      <trkpt lat="43.93305" lon="2.29843">
        <ele>189.2</ele>
        <time>2016-04-20T09:36:42.000Z</time>
      </trkpt>
      <trkpt lat="43.93314" lon="2.29834">
        <ele>189.2</ele>
        <time>2016-04-20T09:36:50.000Z</time>
      </trkpt>
      <trkpt lat="43.93324" lon="2.29831">
        <ele>189.3</ele>
        <time>2016-04-20T09:36:57.000Z</time>
      </trkpt>
      <trkpt lat="43.93334" lon="2.29827">
        <ele>189.4</ele>
        <time>2016-04-20T09:37:5.000Z</time>
      </trkpt>
      <trkpt lat="43.93345" lon="2.29823">
        <ele>189.7</ele>
        <time>2016-04-20T09:37:12.000Z</time>
      </trkpt>
      <trkpt lat="43.93353" lon="2.29818">
        <ele>189.8</ele>
        <time>2016-04-20T09:37:16.000Z</time>
      </trkpt>
      <trkpt lat="43.9336" lon="2.29807">
        <ele>190.2</ele>
        <time>2016-04-20T09:37:33.000Z</time>
      </trkpt>
      <trkpt lat="43.93368" lon="2.29799">
        <ele>190.3</ele>
        <time>2016-04-20T09:37:40.000Z</time>
      </trkpt>
      <trkpt lat="43.93376" lon="2.29795">
        <ele>190.3</ele>
        <time>2016-04-20T09:37:43.000Z</time>
      </trkpt>
      <trkpt lat="43.93385" lon="2.2979">
        <ele>190.3</ele>
        <time>2016-04-20T09:37:50.000Z</time>
      </trkpt>
      <trkpt lat="43.93394" lon="2.29789">
        <ele>190.3</ele>
        <time>2016-04-20T09:37:59.000Z</time>
      </trkpt>
      <trkpt lat="43.93403" lon="2.29795">
        <ele>189.9</ele>
        <time>2016-04-20T09:38:10.000Z</time>
      </trkpt>
      <trkpt lat="43.93412" lon="2.29793">
        <ele>189.6</ele>
        <time>2016-04-20T09:38:20.000Z</time>
      </trkpt>
      <trkpt lat="43.93421" lon="2.29797">
        <ele>189.3</ele>
        <time>2016-04-20T09:38:27.000Z</time>
      </trkpt>
      <trkpt lat="43.93431" lon="2.29795">
        <ele>189.1</ele>
        <time>2016-04-20T09:38:32.000Z</time>
      </trkpt>
      <trkpt lat="43.9344" lon="2.29792">
        <ele>188.9</ele>
        <time>2016-04-20T09:38:38.000Z</time>
      </trkpt>
      <trkpt lat="43.93449" lon="2.29792">
        <ele>188.8</ele>
        <time>2016-04-20T09:38:45.000Z</time>
      </trkpt>
      <trkpt lat="43.93459" lon="2.29792">
        <ele>188.7</ele>
        <time>2016-04-20T09:38:52.000Z</time>
      </trkpt>
      <trkpt lat="43.93468" lon="2.29792">
        <ele>188.6</ele>
        <time>2016-04-20T09:38:58.000Z</time>
      </trkpt>
      <trkpt lat="43.93478" lon="2.2979">
        <ele>188.6</ele>
        <time>2016-04-20T09:39:9.000Z</time>
      </trkpt>
      <trkpt lat="43.93487" lon="2.29796">
        <ele>188.6</ele>
        <time>2016-04-20T09:39:18.000Z</time>
      </trkpt>
      <trkpt lat="43.93496" lon="2.298">
        <ele>188.6</ele>
        <time>2016-04-20T09:39:28.000Z</time>
      </trkpt>
      <trkpt lat="43.93504" lon="2.29807">
        <ele>188.5</ele>
        <time>2016-04-20T09:39:36.000Z</time>
      </trkpt>
      <trkpt lat="43.93512" lon="2.29813">
        <ele>188.5</ele>
        <time>2016-04-20T09:39:40.000Z</time>
      </trkpt>
      <trkpt lat="43.93521" lon="2.29819">
        <ele>188.4</ele>
        <time>2016-04-20T09:39:48.000Z</time>
      </trkpt>
      <trkpt lat="43.93529" lon="2.29831">
        <ele>188.3</ele>
        <time>2016-04-20T09:39:53.000Z</time>
      </trkpt>
      <trkpt lat="43.93538" lon="2.29836">
        <ele>188.1</ele>
        <time>2016-04-20T09:40:1.000Z</time>
      </trkpt>
      <trkpt lat="43.93547" lon="2.29839">
        <ele>188</ele>
        <time>2016-04-20T09:40:8.000Z</time>
      </trkpt>
      <trkpt lat="43.93555" lon="2.29846">
        <ele>187.6</ele>
        <time>2016-04-20T09:40:19.000Z</time>
      </trkpt>
      <trkpt lat="43.93564" lon="2.29847">
        <ele>187.3</ele>
        <time>2016-04-20T09:40:25.000Z</time>
      </trkpt>
      <trkpt lat="43.93572" lon="2.29852">
        <ele>187</ele>
        <time>2016-04-20T09:40:33.000Z</time>
      </trkpt>
      <trkpt lat="43.93577" lon="2.29867">
        <ele>186.1</ele>
        <time>2016-04-20T09:40:46.000Z</time>
      </trkpt>
      <trkpt lat="43.93586" lon="2.29866">
        <ele>185.5</ele>
        <time>2016-04-20T09:40:54.000Z</time>
      </trkpt>
      <trkpt lat="43.93596" lon="2.29871">
        <ele>185.1</ele>
        <time>2016-04-20T09:41:0.000Z</time>
      </trkpt>
      <trkpt lat="43.93606" lon="2.29874">
        <ele>184.8</ele>
        <time>2016-04-20T09:41:6.000Z</time>
      </trkpt>
      <trkpt lat="43.93615" lon="2.29875">
        <ele>184.5</ele>
        <time>2016-04-20T09:41:13.000Z</time>
      </trkpt>
      <trkpt lat="43.93624" lon="2.29877">
        <ele>184.3</ele>
        <time>2016-04-20T09:41:21.000Z</time>
      </trkpt>
      <trkpt lat="43.93632" lon="2.29883">
        <ele>184.2</ele>
        <time>2016-04-20T09:41:27.000Z</time>
      </trkpt>
      <trkpt lat="43.93641" lon="2.29887">
        <ele>184</ele>
        <time>2016-04-20T09:41:34.000Z</time>
      </trkpt>
      <trkpt lat="43.93649" lon="2.29893">
        <ele>183.8</ele>
        <time>2016-04-20T09:41:42.000Z</time>
      </trkpt>
      <trkpt lat="43.93658" lon="2.29898">
        <ele>183.6</ele>
        <time>2016-04-20T09:41:50.000Z</time>
      </trkpt>
      <trkpt lat="43.93667" lon="2.29902">
        <ele>183.2</ele>
        <time>2016-04-20T09:41:59.000Z</time>
      </trkpt>
      <trkpt lat="43.93675" lon="2.2991">
        <ele>183</ele>
        <time>2016-04-20T09:42:7.000Z</time>
      </trkpt>
      <trkpt lat="43.93684" lon="2.29914">
        <ele>182.8</ele>
        <time>2016-04-20T09:42:13.000Z</time>
      </trkpt>
      <trkpt lat="43.93693" lon="2.29918">
        <ele>182.6</ele>
        <time>2016-04-20T09:42:19.000Z</time>
      </trkpt>
      <trkpt lat="43.937" lon="2.29926">
        <ele>182.4</ele>
        <time>2016-04-20T09:42:28.000Z</time>
      </trkpt>
      <trkpt lat="43.93709" lon="2.29929">
        <ele>182.3</ele>
        <time>2016-04-20T09:42:35.000Z</time>
      </trkpt>
      <trkpt lat="43.93719" lon="2.29931">
        <ele>182.3</ele>
        <time>2016-04-20T09:42:40.000Z</time>
      </trkpt>
      <trkpt lat="43.93728" lon="2.29935">
        <ele>182.2</ele>
        <time>2016-04-20T09:42:47.000Z</time>
      </trkpt>
      <trkpt lat="43.93739" lon="2.29937">
        <ele>181.9</ele>
        <time>2016-04-20T09:42:54.000Z</time>
      </trkpt>
      <trkpt lat="43.93744" lon="2.29947">
        <ele>181.7</ele>
        <time>2016-04-20T09:43:0.000Z</time>
      </trkpt>
      <trkpt lat="43.93751" lon="2.29957">
        <ele>181.4</ele>
        <time>2016-04-20T09:43:5.000Z</time>
      </trkpt>
      <trkpt lat="43.93761" lon="2.29963">
        <ele>181.2</ele>
        <time>2016-04-20T09:43:14.000Z</time>
      </trkpt>
      <trkpt lat="43.93769" lon="2.29971">
        <ele>181.1</ele>
        <time>2016-04-20T09:43:21.000Z</time>
      </trkpt>
      <trkpt lat="43.93776" lon="2.29978">
        <ele>181</ele>
        <time>2016-04-20T09:43:30.000Z</time>
      </trkpt>
      <trkpt lat="43.93784" lon="2.29984">
        <ele>181</ele>
        <time>2016-04-20T09:43:37.000Z</time>
      </trkpt>
      <trkpt lat="43.93792" lon="2.29992">
        <ele>181</ele>
        <time>2016-04-20T09:43:44.000Z</time>
      </trkpt>
      <trkpt lat="43.93801" lon="2.29996">
        <ele>180.9</ele>
        <time>2016-04-20T09:43:52.000Z</time>
      </trkpt>
      <trkpt lat="43.93811" lon="2.29999">
        <ele>180.9</ele>
        <time>2016-04-20T09:43:59.000Z</time>
      </trkpt>
      <trkpt lat="43.9382" lon="2.30003">
        <ele>180.9</ele>
        <time>2016-04-20T09:44:7.000Z</time>
      </trkpt>
      <trkpt lat="43.93828" lon="2.3001">
        <ele>180.9</ele>
        <time>2016-04-20T09:44:15.000Z</time>
      </trkpt>
      <trkpt lat="43.93833" lon="2.30021">
        <ele>180.9</ele>
        <time>2016-04-20T09:44:22.000Z</time>
      </trkpt>
      <trkpt lat="43.93839" lon="2.30032">
        <ele>180.9</ele>
        <time>2016-04-20T09:44:30.000Z</time>
      </trkpt>
      <trkpt lat="43.93847" lon="2.30038">
        <ele>180.8</ele>
        <time>2016-04-20T09:44:36.000Z</time>
      </trkpt>
      <trkpt lat="43.93855" lon="2.30045">
        <ele>180.7</ele>
        <time>2016-04-20T09:44:43.000Z</time>
      </trkpt>
      <trkpt lat="43.93862" lon="2.30054">
        <ele>180.6</ele>
        <time>2016-04-20T09:44:58.000Z</time>
      </trkpt>
      <trkpt lat="43.93868" lon="2.30065">
        <ele>180.6</ele>
        <time>2016-04-20T09:45:9.000Z</time>
      </trkpt>
      <trkpt lat="43.93878" lon="2.30075">
        <ele>180.6</ele>
        <time>2016-04-20T09:45:20.000Z</time>
      </trkpt>
      <trkpt lat="43.93886" lon="2.3008">
        <ele>180.6</ele>
        <time>2016-04-20T09:45:26.000Z</time>
      </trkpt>
      <trkpt lat="43.93895" lon="2.30086">
        <ele>180.6</ele>
        <time>2016-04-20T09:45:32.000Z</time>
      </trkpt>
      <trkpt lat="43.939" lon="2.30097">
        <ele>180.6</ele>
        <time>2016-04-20T09:45:40.000Z</time>
      </trkpt>
      <trkpt lat="43.93907" lon="2.30105">
        <ele>180.6</ele>
        <time>2016-04-20T09:45:45.000Z</time>
      </trkpt>
      <trkpt lat="43.93916" lon="2.30112">
        <ele>180.6</ele>
        <time>2016-04-20T09:45:51.000Z</time>
      </trkpt>
      <trkpt lat="43.93926" lon="2.30121">
        <ele>180.6</ele>
        <time>2016-04-20T09:45:56.000Z</time>
      </trkpt>
      <trkpt lat="43.93934" lon="2.30128">
        <ele>180.6</ele>
        <time>2016-04-20T09:46:1.000Z</time>
      </trkpt>
      <trkpt lat="43.93942" lon="2.30136">
        <ele>180.6</ele>
        <time>2016-04-20T09:46:8.000Z</time>
      </trkpt>
      <trkpt lat="43.9395" lon="2.30144">
        <ele>180.6</ele>
        <time>2016-04-20T09:46:15.000Z</time>
      </trkpt>
      <trkpt lat="43.93958" lon="2.30151">
        <ele>180.4</ele>
        <time>2016-04-20T09:46:22.000Z</time>
      </trkpt>
      <trkpt lat="43.93966" lon="2.30158">
        <ele>180.1</ele>
        <time>2016-04-20T09:46:30.000Z</time>
      </trkpt>
      <trkpt lat="43.93973" lon="2.30168">
        <ele>180</ele>
        <time>2016-04-20T09:46:37.000Z</time>
      </trkpt>
      <trkpt lat="43.93982" lon="2.30175">
        <ele>179.9</ele>
        <time>2016-04-20T09:46:45.000Z</time>
      </trkpt>
      <trkpt lat="43.93989" lon="2.30183">
        <ele>179.8</ele>
        <time>2016-04-20T09:46:52.000Z</time>
      </trkpt>
      <trkpt lat="43.93997" lon="2.30189">
        <ele>179.8</ele>
        <time>2016-04-20T09:46:59.000Z</time>
      </trkpt>
      <trkpt lat="43.94003" lon="2.30199">
        <ele>179.8</ele>
        <time>2016-04-20T09:47:6.000Z</time>
      </trkpt>
      <trkpt lat="43.9401" lon="2.30208">
        <ele>179.8</ele>
        <time>2016-04-20T09:47:12.000Z</time>
      </trkpt>
      <trkpt lat="43.94019" lon="2.30215">
        <ele>179.7</ele>
        <time>2016-04-20T09:47:22.000Z</time>
      </trkpt>
      <trkpt lat="43.94027" lon="2.30224">
        <ele>179.7</ele>
        <time>2016-04-20T09:47:31.000Z</time>
      </trkpt>
      <trkpt lat="43.94034" lon="2.30233">
        <ele>179.7</ele>
        <time>2016-04-20T09:47:39.000Z</time>
      </trkpt>
      <trkpt lat="43.94042" lon="2.30241">
        <ele>179.7</ele>
        <time>2016-04-20T09:47:47.000Z</time>
      </trkpt>
      <trkpt lat="43.94049" lon="2.3025">
        <ele>179.7</ele>
        <time>2016-04-20T09:47:56.000Z</time>
      </trkpt>
      <trkpt lat="43.94057" lon="2.30257">
        <ele>179.7</ele>
        <time>2016-04-20T09:48:4.000Z</time>
      </trkpt>
      <trkpt lat="43.94066" lon="2.30266">
        <ele>179.7</ele>
        <time>2016-04-20T09:48:13.000Z</time>
      </trkpt>
      <trkpt lat="43.94073" lon="2.30273">
        <ele>179.7</ele>
        <time>2016-04-20T09:48:22.000Z</time>
      </trkpt>
      <trkpt lat="43.94083" lon="2.30278">
        <ele>179.6</ele>
        <time>2016-04-20T09:48:28.000Z</time>
      </trkpt>
      <trkpt lat="43.94091" lon="2.30285">
        <ele>179.5</ele>
        <time>2016-04-20T09:48:36.000Z</time>
      </trkpt>
      <trkpt lat="43.94098" lon="2.30293">
        <ele>179.2</ele>
        <time>2016-04-20T09:48:43.000Z</time>
      </trkpt>
      <trkpt lat="43.94106" lon="2.30304">
        <ele>178.7</ele>
        <time>2016-04-20T09:48:50.000Z</time>
      </trkpt>
      <trkpt lat="43.94113" lon="2.30311">
        <ele>178.5</ele>
        <time>2016-04-20T09:48:55.000Z</time>
      </trkpt>
      <trkpt lat="43.94121" lon="2.30319">
        <ele>178.4</ele>
        <time>2016-04-20T09:48:59.000Z</time>
      </trkpt>
      <trkpt lat="43.9413" lon="2.30325">
        <ele>178.1</ele>
        <time>2016-04-20T09:49:5.000Z</time>
      </trkpt>
      <trkpt lat="43.94135" lon="2.30336">
        <ele>177.2</ele>
        <time>2016-04-20T09:49:15.000Z</time>
      </trkpt>
      <trkpt lat="43.94143" lon="2.30343">
        <ele>176.5</ele>
        <time>2016-04-20T09:49:24.000Z</time>
      </trkpt>
      <trkpt lat="43.94153" lon="2.30348">
        <ele>175.9</ele>
        <time>2016-04-20T09:49:33.000Z</time>
      </trkpt>
      <trkpt lat="43.94162" lon="2.30352">
        <ele>175.6</ele>
        <time>2016-04-20T09:49:41.000Z</time>
      </trkpt>
      <trkpt lat="43.94171" lon="2.30356">
        <ele>175.4</ele>
        <time>2016-04-20T09:49:48.000Z</time>
      </trkpt>
      <trkpt lat="43.9418" lon="2.30354">
        <ele>175.4</ele>
        <time>2016-04-20T09:49:56.000Z</time>
      </trkpt>
      <trkpt lat="43.94189" lon="2.30357">
        <ele>175.5</ele>
        <time>2016-04-20T09:50:10.000Z</time>
      </trkpt>
      <trkpt lat="43.94199" lon="2.30355">
        <ele>175.5</ele>
        <time>2016-04-20T09:50:17.000Z</time>
      </trkpt>
      <trkpt lat="43.94209" lon="2.30356">
        <ele>175.6</ele>
        <time>2016-04-20T09:50:21.000Z</time>
      </trkpt>
      <trkpt lat="43.94219" lon="2.30358">
        <ele>175.7</ele>
        <time>2016-04-20T09:50:28.000Z</time>
      </trkpt>
      <trkpt lat="43.94228" lon="2.30358">
        <ele>176</ele>
        <time>2016-04-20T09:50:34.000Z</time>
      </trkpt>
      <trkpt lat="43.94237" lon="2.30357">
        <ele>176.4</ele>
        <time>2016-04-20T09:50:41.000Z</time>
      </trkpt>
      <trkpt lat="43.94246" lon="2.30354">
        <ele>177.1</ele>
        <time>2016-04-20T09:50:49.000Z</time>
      </trkpt>
      <trkpt lat="43.94256" lon="2.30348">
        <ele>177.3</ele>
        <time>2016-04-20T09:50:53.000Z</time>
      </trkpt>
      <trkpt lat="43.94265" lon="2.30341">
        <ele>177.6</ele>
        <time>2016-04-20T09:51:1.000Z</time>
      </trkpt>
      <trkpt lat="43.94273" lon="2.30335">
        <ele>177.8</ele>
        <time>2016-04-20T09:51:8.000Z</time>
      </trkpt>
      <trkpt lat="43.94281" lon="2.30327">
        <ele>178</ele>
        <time>2016-04-20T09:51:17.000Z</time>
      </trkpt>
      <trkpt lat="43.94288" lon="2.30318">
        <ele>178</ele>
        <time>2016-04-20T09:51:26.000Z</time>
      </trkpt>
      <trkpt lat="43.94292" lon="2.30306">
        <ele>178</ele>
        <time>2016-04-20T09:51:35.000Z</time>
      </trkpt>
      <trkpt lat="43.94297" lon="2.30294">
        <ele>178.2</ele>
        <time>2016-04-20T09:51:43.000Z</time>
      </trkpt>
      <trkpt lat="43.94299" lon="2.30282">
        <ele>178.6</ele>
        <time>2016-04-20T09:51:52.000Z</time>
      </trkpt>
      <trkpt lat="43.94297" lon="2.30269">
        <ele>179.2</ele>
        <time>2016-04-20T09:52:0.000Z</time>
      </trkpt>
      <trkpt lat="43.94296" lon="2.30255">
        <ele>179.7</ele>
        <time>2016-04-20T09:52:8.000Z</time>
      </trkpt>
      <trkpt lat="43.94292" lon="2.30243">
        <ele>180.1</ele>
        <time>2016-04-20T09:52:17.000Z</time>
      </trkpt>
      <trkpt lat="43.94288" lon="2.30229">
        <ele>180.3</ele>
        <time>2016-04-20T09:52:27.000Z</time>
      </trkpt>
      <trkpt lat="43.94282" lon="2.30219">
        <ele>180.5</ele>
        <time>2016-04-20T09:52:34.000Z</time>
      </trkpt>
      <trkpt lat="43.94275" lon="2.30209">
        <ele>180.6</ele>
        <time>2016-04-20T09:52:42.000Z</time>
      </trkpt>
      <trkpt lat="43.9427" lon="2.30198">
        <ele>180.8</ele>
        <time>2016-04-20T09:52:50.000Z</time>
      </trkpt>
      <trkpt lat="43.94264" lon="2.30189">
        <ele>180.9</ele>
        <time>2016-04-20T09:52:56.000Z</time>
      </trkpt>
      <trkpt lat="43.94258" lon="2.30176">
        <ele>181</ele>
        <time>2016-04-20T09:53:3.000Z</time>
      </trkpt>
      <trkpt lat="43.94255" lon="2.30164">
        <ele>181.1</ele>
        <time>2016-04-20T09:53:11.000Z</time>
      </trkpt>
      <trkpt lat="43.94249" lon="2.30153">
        <ele>181</ele>
        <time>2016-04-20T09:53:20.000Z</time>
      </trkpt>
      <trkpt lat="43.94243" lon="2.30143">
        <ele>181</ele>
        <time>2016-04-20T09:53:25.000Z</time>
      </trkpt>
      <trkpt lat="43.94237" lon="2.30131">
        <ele>181</ele>
        <time>2016-04-20T09:53:31.000Z</time>
      </trkpt>
      <trkpt lat="43.9423" lon="2.30122">
        <ele>181</ele>
        <time>2016-04-20T09:53:38.000Z</time>
      </trkpt>
      <trkpt lat="43.94227" lon="2.3011">
        <ele>180.9</ele>
        <time>2016-04-20T09:53:45.000Z</time>
      </trkpt>
      <trkpt lat="43.94223" lon="2.30099">
        <ele>180.9</ele>
        <time>2016-04-20T09:53:51.000Z</time>
      </trkpt>
      <trkpt lat="43.94217" lon="2.30089">
        <ele>180.9</ele>
        <time>2016-04-20T09:53:58.000Z</time>
      </trkpt>
      <trkpt lat="43.9422" lon="2.30076">
        <ele>180.7</ele>
        <time>2016-04-20T09:54:6.000Z</time>
      </trkpt>
      <trkpt lat="43.9422" lon="2.30063">
        <ele>180.4</ele>
        <time>2016-04-20T09:54:13.000Z</time>
      </trkpt>
      <trkpt lat="43.9422" lon="2.30051">
        <ele>180.2</ele>
        <time>2016-04-20T09:54:20.000Z</time>
      </trkpt>
      <trkpt lat="43.94217" lon="2.30037">
        <ele>180.1</ele>
        <time>2016-04-20T09:54:27.000Z</time>
      </trkpt>
      <trkpt lat="43.9422" lon="2.30025">
        <ele>180</ele>
        <time>2016-04-20T09:54:34.000Z</time>
      </trkpt>
      <trkpt lat="43.9422" lon="2.30013">
        <ele>179.5</ele>
        <time>2016-04-20T09:54:42.000Z</time>
      </trkpt>
      <trkpt lat="43.94223" lon="2.3">
        <ele>179</ele>
        <time>2016-04-20T09:54:51.000Z</time>
      </trkpt>
      <trkpt lat="43.94224" lon="2.29986">
        <ele>178.8</ele>
        <time>2016-04-20T09:54:59.000Z</time>
      </trkpt>
      <trkpt lat="43.94225" lon="2.29972">
        <ele>178.6</ele>
        <time>2016-04-20T09:55:8.000Z</time>
      </trkpt>
      <trkpt lat="43.94223" lon="2.29958">
        <ele>178.6</ele>
        <time>2016-04-20T09:55:16.000Z</time>
      </trkpt>
      <trkpt lat="43.94228" lon="2.29947">
        <ele>178.5</ele>
        <time>2016-04-20T09:55:23.000Z</time>
      </trkpt>
      <trkpt lat="43.94235" lon="2.29937">
        <ele>178.5</ele>
        <time>2016-04-20T09:55:29.000Z</time>
      </trkpt>
      <trkpt lat="43.94232" lon="2.29925">
        <ele>178.4</ele>
        <time>2016-04-20T09:55:35.000Z</time>
      </trkpt>
      <trkpt lat="43.94231" lon="2.29913">
        <ele>178.4</ele>
        <time>2016-04-20T09:55:42.000Z</time>
      </trkpt>
      <trkpt lat="43.94232" lon="2.29899">
        <ele>178.4</ele>
        <time>2016-04-20T09:55:51.000Z</time>
      </trkpt>
      <trkpt lat="43.94236" lon="2.29887">
        <ele>178.4</ele>
        <time>2016-04-20T09:55:58.000Z</time>
      </trkpt>
      <trkpt lat="43.94235" lon="2.29874">
        <ele>178.4</ele>
        <time>2016-04-20T09:56:5.000Z</time>
      </trkpt>
      <trkpt lat="43.94238" lon="2.29861">
        <ele>178.4</ele>
        <time>2016-04-20T09:56:13.000Z</time>
      </trkpt>
      <trkpt lat="43.94234" lon="2.29849">
        <ele>178.6</ele>
        <time>2016-04-20T09:56:21.000Z</time>
      </trkpt>
      <trkpt lat="43.94233" lon="2.29835">
        <ele>179.5</ele>
        <time>2016-04-20T09:56:36.000Z</time>
      </trkpt>
      <trkpt lat="43.9423" lon="2.29822">
        <ele>180.2</ele>
        <time>2016-04-20T09:56:45.000Z</time>
      </trkpt>
      <trkpt lat="43.94225" lon="2.29811">
        <ele>180.8</ele>
        <time>2016-04-20T09:56:53.000Z</time>
      </trkpt>
      <trkpt lat="43.94234" lon="2.29805">
        <ele>181.2</ele>
        <time>2016-04-20T09:56:56.000Z</time>
      </trkpt>
      <trkpt lat="43.94244" lon="2.29796">
        <ele>181.6</ele>
        <time>2016-04-20T09:57:0.000Z</time>
      </trkpt>
      <trkpt lat="43.94245" lon="2.29783">
        <ele>182.4</ele>
        <time>2016-04-20T09:57:10.000Z</time>
      </trkpt>
      <trkpt lat="43.94254" lon="2.29778">
        <ele>182.7</ele>
        <time>2016-04-20T09:57:15.000Z</time>
      </trkpt>
      <trkpt lat="43.94253" lon="2.29765">
        <ele>183</ele>
        <time>2016-04-20T09:57:23.000Z</time>
      </trkpt>
      <trkpt lat="43.94256" lon="2.29751">
        <ele>183.4</ele>
        <time>2016-04-20T09:57:32.000Z</time>
      </trkpt>
      <trkpt lat="43.94257" lon="2.29737">
        <ele>183.7</ele>
        <time>2016-04-20T09:57:39.000Z</time>
      </trkpt>
      <trkpt lat="43.9426" lon="2.29724">
        <ele>184.1</ele>
        <time>2016-04-20T09:57:46.000Z</time>
      </trkpt>
      <trkpt lat="43.94265" lon="2.2971">
        <ele>184.3</ele>
        <time>2016-04-20T09:57:54.000Z</time>
      </trkpt>
      <trkpt lat="43.94269" lon="2.29697">
        <ele>184.6</ele>
        <time>2016-04-20T09:58:3.000Z</time>
      </trkpt>
      <trkpt lat="43.94276" lon="2.29688">
        <ele>184.8</ele>
        <time>2016-04-20T09:58:8.000Z</time>
      </trkpt>
      <trkpt lat="43.94274" lon="2.29675">
        <ele>185.6</ele>
        <time>2016-04-20T09:58:18.000Z</time>
      </trkpt>
      <trkpt lat="43.94271" lon="2.29662">
        <ele>186</ele>
        <time>2016-04-20T09:58:29.000Z</time>
      </trkpt>
      <trkpt lat="43.94267" lon="2.29649">
        <ele>186.1</ele>
        <time>2016-04-20T09:58:36.000Z</time>
      </trkpt>
      <trkpt lat="43.94267" lon="2.29635">
        <ele>186.2</ele>
        <time>2016-04-20T09:58:43.000Z</time>
      </trkpt>
      <trkpt lat="43.94262" lon="2.29625">
        <ele>186.2</ele>
        <time>2016-04-20T09:58:50.000Z</time>
      </trkpt>
      <trkpt lat="43.9426" lon="2.29613">
        <ele>186.3</ele>
        <time>2016-04-20T09:58:56.000Z</time>
      </trkpt>
      <trkpt lat="43.9426" lon="2.296">
        <ele>186.4</ele>
        <time>2016-04-20T09:59:4.000Z</time>
      </trkpt>
      <trkpt lat="43.94262" lon="2.29586">
        <ele>186.5</ele>
        <time>2016-04-20T09:59:11.000Z</time>
      </trkpt>
      <trkpt lat="43.94263" lon="2.29573">
        <ele>186.5</ele>
        <time>2016-04-20T09:59:19.000Z</time>
      </trkpt>
      <trkpt lat="43.94266" lon="2.29561">
        <ele>186.6</ele>
        <time>2016-04-20T09:59:30.000Z</time>
      </trkpt>
      <trkpt lat="43.94262" lon="2.29548">
        <ele>186.6</ele>
        <time>2016-04-20T09:59:40.000Z</time>
      </trkpt>
      <trkpt lat="43.94257" lon="2.29536">
        <ele>186.5</ele>
        <time>2016-04-20T09:59:49.000Z</time>
      </trkpt>
      <trkpt lat="43.94251" lon="2.29524">
        <ele>186.4</ele>
        <time>2016-04-20T09:59:56.000Z</time>
      </trkpt>
      <trkpt lat="43.94244" lon="2.29513">
        <ele>186.3</ele>
        <time>2016-04-20T10:00:3.000Z</time>
      </trkpt>
      <trkpt lat="43.9424" lon="2.29501">
        <ele>186.3</ele>
        <time>2016-04-20T10:00:10.000Z</time>
      </trkpt>
      <trkpt lat="43.94234" lon="2.2949">
        <ele>186.2</ele>
        <time>2016-04-20T10:00:15.000Z</time>
      </trkpt>
      <trkpt lat="43.94232" lon="2.29476">
        <ele>186.2</ele>
        <time>2016-04-20T10:00:22.000Z</time>
      </trkpt>
      <trkpt lat="43.94227" lon="2.29465">
        <ele>186.2</ele>
        <time>2016-04-20T10:00:30.000Z</time>
      </trkpt>
      <trkpt lat="43.94221" lon="2.29455">
        <ele>186.2</ele>
        <time>2016-04-20T10:00:37.000Z</time>
      </trkpt>
      <trkpt lat="43.94221" lon="2.2944">
        <ele>186.2</ele>
        <time>2016-04-20T10:00:45.000Z</time>
      </trkpt>
      <trkpt lat="43.9422" lon="2.29426">
        <ele>186.1</ele>
        <time>2016-04-20T10:00:52.000Z</time>
      </trkpt>
      <trkpt lat="43.94214" lon="2.29413">
        <ele>186.1</ele>
        <time>2016-04-20T10:00:59.000Z</time>
      </trkpt>
      <trkpt lat="43.94208" lon="2.29404">
        <ele>185.9</ele>
        <time>2016-04-20T10:01:5.000Z</time>
      </trkpt>
      <trkpt lat="43.94202" lon="2.29392">
        <ele>185.5</ele>
        <time>2016-04-20T10:01:12.000Z</time>
      </trkpt>
      <trkpt lat="43.94196" lon="2.29381">
        <ele>186.3</ele>
        <time>2016-04-20T10:01:21.000Z</time>
      </trkpt>
      <trkpt lat="43.94189" lon="2.29372">
        <ele>186.8</ele>
        <time>2016-04-20T10:01:29.000Z</time>
      </trkpt>
      <trkpt lat="43.94182" lon="2.29363">
        <ele>187.1</ele>
        <time>2016-04-20T10:01:37.000Z</time>
      </trkpt>
      <trkpt lat="43.94171" lon="2.29354">
        <ele>187.3</ele>
        <time>2016-04-20T10:01:44.000Z</time>
      </trkpt>
      <trkpt lat="43.94164" lon="2.29344">
        <ele>187.5</ele>
        <time>2016-04-20T10:01:50.000Z</time>
      </trkpt>
      <trkpt lat="43.94156" lon="2.29335">
        <ele>187.8</ele>
        <time>2016-04-20T10:01:56.000Z</time>
      </trkpt>
      <trkpt lat="43.9415" lon="2.29323">
        <ele>188.2</ele>
        <time>2016-04-20T10:02:3.000Z</time>
      </trkpt>
      <trkpt lat="43.94144" lon="2.29313">
        <ele>188.4</ele>
        <time>2016-04-20T10:02:8.000Z</time>
      </trkpt>
      <trkpt lat="43.94137" lon="2.29303">
        <ele>188.6</ele>
        <time>2016-04-20T10:02:15.000Z</time>
      </trkpt>
      <trkpt lat="43.94131" lon="2.29293">
        <ele>188.7</ele>
        <time>2016-04-20T10:02:23.000Z</time>
      </trkpt>
      <trkpt lat="43.94124" lon="2.29283">
        <ele>188.7</ele>
        <time>2016-04-20T10:02:30.000Z</time>
      </trkpt>
      <trkpt lat="43.94117" lon="2.29272">
        <ele>188.8</ele>
        <time>2016-04-20T10:02:38.000Z</time>
      </trkpt>
      <trkpt lat="43.94111" lon="2.29263">
        <ele>188.6</ele>
        <time>2016-04-20T10:02:44.000Z</time>
      </trkpt>
      <trkpt lat="43.94105" lon="2.29253">
        <ele>188.3</ele>
        <time>2016-04-20T10:02:51.000Z</time>
      </trkpt>
      <trkpt lat="43.94098" lon="2.29243">
        <ele>188.4</ele>
        <time>2016-04-20T10:02:56.000Z</time>
      </trkpt>
      <trkpt lat="43.94091" lon="2.29235">
        <ele>188.4</ele>
        <time>2016-04-20T10:03:3.000Z</time>
      </trkpt>
      <trkpt lat="43.94083" lon="2.29228">
        <ele>188.3</ele>
        <time>2016-04-20T10:03:9.000Z</time>
      </trkpt>
      <trkpt lat="43.94074" lon="2.29221">
        <ele>188.2</ele>
        <time>2016-04-20T10:03:16.000Z</time>
      </trkpt>
      <trkpt lat="43.94066" lon="2.29218">
        <ele>187.9</ele>
        <time>2016-04-20T10:03:24.000Z</time>
      </trkpt>
      <trkpt lat="43.94056" lon="2.29216">
        <ele>187.6</ele>
        <time>2016-04-20T10:03:33.000Z</time>
      </trkpt>
      <trkpt lat="43.94048" lon="2.29211">
        <ele>187.3</ele>
        <time>2016-04-20T10:03:40.000Z</time>
      </trkpt>
      <trkpt lat="43.94038" lon="2.29215">
        <ele>186.6</ele>
        <time>2016-04-20T10:03:52.000Z</time>
      </trkpt>
      <trkpt lat="43.94028" lon="2.29211">
        <ele>186.8</ele>
        <time>2016-04-20T10:03:58.000Z</time>
      </trkpt>
      <trkpt lat="43.94018" lon="2.2921">
        <ele>186.8</ele>
        <time>2016-04-20T10:04:6.000Z</time>
      </trkpt>
      <trkpt lat="43.94008" lon="2.2921">
        <ele>186.9</ele>
        <time>2016-04-20T10:04:15.000Z</time>
      </trkpt>
      <trkpt lat="43.93999" lon="2.29209">
        <ele>187</ele>
        <time>2016-04-20T10:04:22.000Z</time>
      </trkpt>
      <trkpt lat="43.9399" lon="2.29204">
        <ele>187.7</ele>
        <time>2016-04-20T10:04:40.000Z</time>
      </trkpt>
      <trkpt lat="43.93981" lon="2.29202">
        <ele>188.1</ele>
        <time>2016-04-20T10:04:47.000Z</time>
      </trkpt>
      <trkpt lat="43.93971" lon="2.29198">
        <ele>188.6</ele>
        <time>2016-04-20T10:04:53.000Z</time>
      </trkpt>
      <trkpt lat="43.93962" lon="2.29197">
        <ele>189.4</ele>
        <time>2016-04-20T10:05:1.000Z</time>
      </trkpt>
      <trkpt lat="43.93953" lon="2.29195">
        <ele>190.3</ele>
        <time>2016-04-20T10:05:7.000Z</time>
      </trkpt>
      <trkpt lat="43.93943" lon="2.29196">
        <ele>190.9</ele>
        <time>2016-04-20T10:05:14.000Z</time>
      </trkpt>
      <trkpt lat="43.93933" lon="2.29197">
        <ele>191.1</ele>
        <time>2016-04-20T10:05:22.000Z</time>
      </trkpt>
      <trkpt lat="43.93924" lon="2.29201">
        <ele>190.6</ele>
        <time>2016-04-20T10:05:30.000Z</time>
      </trkpt>
      <trkpt lat="43.93914" lon="2.29201">
        <ele>190.1</ele>
        <time>2016-04-20T10:05:36.000Z</time>
      </trkpt>
      <trkpt lat="43.93905" lon="2.29201">
        <ele>189.7</ele>
        <time>2016-04-20T10:05:44.000Z</time>
      </trkpt>
      <trkpt lat="43.93896" lon="2.29202">
        <ele>189.5</ele>
        <time>2016-04-20T10:05:51.000Z</time>
      </trkpt>
      <trkpt lat="43.93887" lon="2.292">
        <ele>189.3</ele>
        <time>2016-04-20T10:05:57.000Z</time>
      </trkpt>
      <trkpt lat="43.93876" lon="2.29198">
        <ele>189</ele>
        <time>2016-04-20T10:06:5.000Z</time>
      </trkpt>
      <trkpt lat="43.93867" lon="2.29194">
        <ele>188.9</ele>
        <time>2016-04-20T10:06:10.000Z</time>
      </trkpt>
      <trkpt lat="43.93857" lon="2.29192">
        <ele>188.8</ele>
        <time>2016-04-20T10:06:18.000Z</time>
      </trkpt>
      <trkpt lat="43.93848" lon="2.29187">
        <ele>188.7</ele>
        <time>2016-04-20T10:06:24.000Z</time>
      </trkpt>
      <trkpt lat="43.93839" lon="2.29184">
        <ele>188.7</ele>
        <time>2016-04-20T10:06:30.000Z</time>
      </trkpt>
      <trkpt lat="43.9383" lon="2.29182">
        <ele>188.6</ele>
        <time>2016-04-20T10:06:37.000Z</time>
      </trkpt>
      <trkpt lat="43.9382" lon="2.29183">
        <ele>188.5</ele>
        <time>2016-04-20T10:06:45.000Z</time>
      </trkpt>
      <trkpt lat="43.9381" lon="2.29181">
        <ele>188.4</ele>
        <time>2016-04-20T10:06:51.000Z</time>
      </trkpt>
      <trkpt lat="43.93801" lon="2.29186">
        <ele>188.2</ele>
        <time>2016-04-20T10:06:59.000Z</time>
      </trkpt>
      <trkpt lat="43.93792" lon="2.29189">
        <ele>187.6</ele>
        <time>2016-04-20T10:07:6.000Z</time>
      </trkpt>
      <trkpt lat="43.93782" lon="2.29192">
        <ele>187.3</ele>
        <time>2016-04-20T10:07:12.000Z</time>
      </trkpt>
      <trkpt lat="43.93773" lon="2.29193">
        <ele>187.1</ele>
        <time>2016-04-20T10:07:20.000Z</time>
      </trkpt>
      <trkpt lat="43.93763" lon="2.29191">
        <ele>187</ele>
        <time>2016-04-20T10:07:27.000Z</time>
      </trkpt>
      <trkpt lat="43.93754" lon="2.29192">
        <ele>186.7</ele>
        <time>2016-04-20T10:07:34.000Z</time>
      </trkpt>
      <trkpt lat="43.93744" lon="2.29193">
        <ele>186.7</ele>
        <time>2016-04-20T10:07:42.000Z</time>
      </trkpt>
      <trkpt lat="43.93735" lon="2.29195">
        <ele>186.9</ele>
        <time>2016-04-20T10:07:50.000Z</time>
      </trkpt>
      <trkpt lat="43.93726" lon="2.29202">
        <ele>187.2</ele>
        <time>2016-04-20T10:07:59.000Z</time>
      </trkpt>
      <trkpt lat="43.93717" lon="2.29207">
        <ele>187.8</ele>
        <time>2016-04-20T10:08:7.000Z</time>
      </trkpt>
      <trkpt lat="43.93707" lon="2.29202">
        <ele>188.4</ele>
        <time>2016-04-20T10:08:14.000Z</time>
      </trkpt>
      <trkpt lat="43.93697" lon="2.29205">
        <ele>189.3</ele>
        <time>2016-04-20T10:08:22.000Z</time>
      </trkpt>
      <trkpt lat="43.93688" lon="2.29202">
        <ele>189.9</ele>
        <time>2016-04-20T10:08:30.000Z</time>
      </trkpt>
      <trkpt lat="43.93679" lon="2.29208">
        <ele>190.5</ele>
        <time>2016-04-20T10:08:37.000Z</time>
      </trkpt>
      <trkpt lat="43.9367" lon="2.29213">
        <ele>191</ele>
        <time>2016-04-20T10:08:43.000Z</time>
      </trkpt>
      <trkpt lat="43.93661" lon="2.29217">
        <ele>191.4</ele>
        <time>2016-04-20T10:08:50.000Z</time>
      </trkpt>
      <trkpt lat="43.93651" lon="2.29217">
        <ele>191.5</ele>
        <time>2016-04-20T10:08:57.000Z</time>
      </trkpt>
      <trkpt lat="43.93641" lon="2.29213">
        <ele>191.6</ele>
        <time>2016-04-20T10:09:4.000Z</time>
      </trkpt>
      <trkpt lat="43.93632" lon="2.29211">
        <ele>191.7</ele>
        <time>2016-04-20T10:09:11.000Z</time>
      </trkpt>
      <trkpt lat="43.93621" lon="2.29208">
        <ele>191.9</ele>
        <time>2016-04-20T10:09:18.000Z</time>
      </trkpt>
      <trkpt lat="43.93612" lon="2.29206">
        <ele>192.1</ele>
        <time>2016-04-20T10:09:25.000Z</time>
      </trkpt>
      <trkpt lat="43.93603" lon="2.29203">
        <ele>192.1</ele>
        <time>2016-04-20T10:09:32.000Z</time>
      </trkpt>
      <trkpt lat="43.93594" lon="2.292">
        <ele>192.2</ele>
        <time>2016-04-20T10:09:39.000Z</time>
      </trkpt>
      <trkpt lat="43.93585" lon="2.29198">
        <ele>192.3</ele>
        <time>2016-04-20T10:09:46.000Z</time>
      </trkpt>
      <trkpt lat="43.93575" lon="2.29198">
        <ele>191.3</ele>
        <time>2016-04-20T10:09:53.000Z</time>
      </trkpt>
      <trkpt lat="43.93566" lon="2.29204">
        <ele>190.2</ele>
        <time>2016-04-20T10:10:2.000Z</time>
      </trkpt>
      <trkpt lat="43.93557" lon="2.29208">
        <ele>190.1</ele>
        <time>2016-04-20T10:10:9.000Z</time>
      </trkpt>
      <trkpt lat="43.93546" lon="2.29206">
        <ele>189.4</ele>
        <time>2016-04-20T10:10:17.000Z</time>
      </trkpt>
      <trkpt lat="43.93536" lon="2.29204">
        <ele>189.5</ele>
        <time>2016-04-20T10:10:25.000Z</time>
      </trkpt>
      <trkpt lat="43.93527" lon="2.29203">
        <ele>189.5</ele>
        <time>2016-04-20T10:10:32.000Z</time>
      </trkpt>
      <trkpt lat="43.93518" lon="2.29202">
        <ele>189.2</ele>
        <time>2016-04-20T10:10:39.000Z</time>
      </trkpt>
      <trkpt lat="43.93508" lon="2.292">
        <ele>190</ele>
        <time>2016-04-20T10:10:47.000Z</time>
      </trkpt>
      <trkpt lat="43.93498" lon="2.29199">
        <ele>189.9</ele>
        <time>2016-04-20T10:10:53.000Z</time>
      </trkpt>
      <trkpt lat="43.93488" lon="2.29198">
        <ele>189.3</ele>
        <time>2016-04-20T10:11:0.000Z</time>
      </trkpt>
      <trkpt lat="43.93478" lon="2.29197">
        <ele>189</ele>
        <time>2016-04-20T10:11:6.000Z</time>
      </trkpt>
      <trkpt lat="43.9347" lon="2.29191">
        <ele>188.4</ele>
        <time>2016-04-20T10:11:16.000Z</time>
      </trkpt>
      <trkpt lat="43.93462" lon="2.29183">
        <ele>188.8</ele>
        <time>2016-04-20T10:11:24.000Z</time>
      </trkpt>
      <trkpt lat="43.93454" lon="2.29174">
        <ele>188.7</ele>
        <time>2016-04-20T10:11:30.000Z</time>
      </trkpt>
      <trkpt lat="43.9345" lon="2.29162">
        <ele>188</ele>
        <time>2016-04-20T10:11:36.000Z</time>
      </trkpt>
      <trkpt lat="43.93444" lon="2.29151">
        <ele>187.9</ele>
        <time>2016-04-20T10:11:42.000Z</time>
      </trkpt>
      <trkpt lat="43.93439" lon="2.29139">
        <ele>188.3</ele>
        <time>2016-04-20T10:11:50.000Z</time>
      </trkpt>
      <trkpt lat="43.93438" lon="2.29125">
        <ele>187.6</ele>
        <time>2016-04-20T10:11:56.000Z</time>
      </trkpt>
      <trkpt lat="43.93431" lon="2.29115">
        <ele>186</ele>
        <time>2016-04-20T10:12:4.000Z</time>
      </trkpt>
      <trkpt lat="43.93422" lon="2.2911">
        <ele>185.6</ele>
        <time>2016-04-20T10:12:12.000Z</time>
      </trkpt>
      <trkpt lat="43.93412" lon="2.29106">
        <ele>186.1</ele>
        <time>2016-04-20T10:12:20.000Z</time>
      </trkpt>
      <trkpt lat="43.93403" lon="2.29101">
        <ele>187</ele>
        <time>2016-04-20T10:12:29.000Z</time>
      </trkpt>
      <trkpt lat="43.93394" lon="2.29096">
        <ele>185.8</ele>
        <time>2016-04-20T10:12:35.000Z</time>
      </trkpt>
      <trkpt lat="43.93385" lon="2.29095">
        <ele>185.9</ele>
        <time>2016-04-20T10:12:42.000Z</time>
      </trkpt>
      <trkpt lat="43.93376" lon="2.2909">
        <ele>185.2</ele>
        <time>2016-04-20T10:12:49.000Z</time>
      </trkpt>
      <trkpt lat="43.93366" lon="2.2909">
        <ele>185.8</ele>
        <time>2016-04-20T10:12:53.000Z</time>
      </trkpt>
      <trkpt lat="43.93357" lon="2.29087">
        <ele>186.4</ele>
        <time>2016-04-20T10:12:58.000Z</time>
      </trkpt>
      <trkpt lat="43.93348" lon="2.29083">
        <ele>186.6</ele>
        <time>2016-04-20T10:13:6.000Z</time>
      </trkpt>
      <trkpt lat="43.93338" lon="2.29079">
        <ele>187.1</ele>
        <time>2016-04-20T10:13:14.000Z</time>
      </trkpt>
      <trkpt lat="43.93329" lon="2.29073">
        <ele>187.3</ele>
        <time>2016-04-20T10:13:22.000Z</time>
      </trkpt>
      <trkpt lat="43.93321" lon="2.29065">
        <ele>186.9</ele>
        <time>2016-04-20T10:13:28.000Z</time>
      </trkpt>
      <trkpt lat="43.93315" lon="2.29052">
        <ele>186.2</ele>
        <time>2016-04-20T10:13:38.000Z</time>
      </trkpt>
      <trkpt lat="43.93306" lon="2.29047">
        <ele>185.8</ele>
        <time>2016-04-20T10:13:45.000Z</time>
      </trkpt>
      <trkpt lat="43.93298" lon="2.29041">
        <ele>185</ele>
        <time>2016-04-20T10:13:52.000Z</time>
      </trkpt>
      <trkpt lat="43.93289" lon="2.29036">
        <ele>184.6</ele>
        <time>2016-04-20T10:14:0.000Z</time>
      </trkpt>
      <trkpt lat="43.9328" lon="2.29029">
        <ele>183.8</ele>
        <time>2016-04-20T10:14:8.000Z</time>
      </trkpt>
      <trkpt lat="43.93273" lon="2.29019">
        <ele>183.9</ele>
        <time>2016-04-20T10:14:13.000Z</time>
      </trkpt>
      <trkpt lat="43.93264" lon="2.29013">
        <ele>184</ele>
        <time>2016-04-20T10:14:20.000Z</time>
      </trkpt>
      <trkpt lat="43.93257" lon="2.29004">
        <ele>184.1</ele>
        <time>2016-04-20T10:14:27.000Z</time>
      </trkpt>
      <trkpt lat="43.93248" lon="2.28999">
        <ele>184</ele>
        <time>2016-04-20T10:14:34.000Z</time>
      </trkpt>
      <trkpt lat="43.93239" lon="2.28992">
        <ele>183.8</ele>
        <time>2016-04-20T10:14:41.000Z</time>
      </trkpt>
      <trkpt lat="43.93231" lon="2.28984">
        <ele>183.4</ele>
        <time>2016-04-20T10:14:49.000Z</time>
      </trkpt>
      <trkpt lat="43.93223" lon="2.28977">
        <ele>184</ele>
        <time>2016-04-20T10:14:54.000Z</time>
      </trkpt>
      <trkpt lat="43.93215" lon="2.28971">
        <ele>185.8</ele>
        <time>2016-04-20T10:15:1.000Z</time>
      </trkpt>
      <trkpt lat="43.93207" lon="2.28964">
        <ele>185.4</ele>
        <time>2016-04-20T10:15:10.000Z</time>
      </trkpt>
      <trkpt lat="43.932" lon="2.28956">
        <ele>185.3</ele>
        <time>2016-04-20T10:15:16.000Z</time>
      </trkpt>
      <trkpt lat="43.93192" lon="2.2895">
        <ele>184.5</ele>
        <time>2016-04-20T10:15:24.000Z</time>
      </trkpt>
      <trkpt lat="43.93184" lon="2.28944">
        <ele>184.2</ele>
        <time>2016-04-20T10:15:31.000Z</time>
      </trkpt>
      <trkpt lat="43.93175" lon="2.28937">
        <ele>184.4</ele>
        <time>2016-04-20T10:15:37.000Z</time>
      </trkpt>
      <trkpt lat="43.93167" lon="2.28929">
        <ele>184.3</ele>
        <time>2016-04-20T10:15:44.000Z</time>
      </trkpt>
      <trkpt lat="43.93158" lon="2.28924">
        <ele>184.5</ele>
        <time>2016-04-20T10:15:52.000Z</time>
      </trkpt>
      <trkpt lat="43.93149" lon="2.28918">
        <ele>184.8</ele>
        <time>2016-04-20T10:16:0.000Z</time>
      </trkpt>
      <trkpt lat="43.9314" lon="2.28924">
        <ele>185</ele>
        <time>2016-04-20T10:16:8.000Z</time>
      </trkpt>
      <trkpt lat="43.93136" lon="2.28936">
        <ele>185.1</ele>
        <time>2016-04-20T10:16:14.000Z</time>
      </trkpt>
      <trkpt lat="43.93131" lon="2.28947">
        <ele>185.5</ele>
        <time>2016-04-20T10:16:22.000Z</time>
      </trkpt>
      <trkpt lat="43.93125" lon="2.28957">
        <ele>185.7</ele>
        <time>2016-04-20T10:16:30.000Z</time>
      </trkpt>
      <trkpt lat="43.93118" lon="2.28967">
        <ele>186</ele>
        <time>2016-04-20T10:16:39.000Z</time>
      </trkpt>
      <trkpt lat="43.9311" lon="2.28975">
        <ele>186.2</ele>
        <time>2016-04-20T10:16:48.000Z</time>
      </trkpt>
      <trkpt lat="43.93103" lon="2.28983">
        <ele>186.5</ele>
        <time>2016-04-20T10:16:59.000Z</time>
      </trkpt>
      <trkpt lat="43.93095" lon="2.2899">
        <ele>187</ele>
        <time>2016-04-20T10:17:6.000Z</time>
      </trkpt>
      <trkpt lat="43.93086" lon="2.28986">
        <ele>188.9</ele>
        <time>2016-04-20T10:17:16.000Z</time>
      </trkpt>
      <trkpt lat="43.93081" lon="2.2898">
        <ele>189.2</ele>
        <time>2016-04-20T10:17:39.000Z</time>
      </trkpt>
    </trkseg>
  </trk>
</gpx>